<?xml version="1.0" encoding="utf-8"?>
<gpx xmlns:xsi="http://www.w3.org/2001/XMLSchema-instance" xmlns:xsd="http://www.w3.org/2001/XMLSchema" version="1.1" creator="Shapelink.com" xmlns="http://www.topografix.com/GPX/1/1" xmlns:gpxtpx="http://www.garmin.com/xmlschemas/TrackPointExtension/v1">
  <metadata>
    <name>Längdskidåkning - Klassisk 10.68 km, 2011-02-21</name>
    <desc></desc>
    <author><name>Alexander Engvall</name></author> 
    <time>2011-02-21T19:15:21Z</time>
  </metadata>
  <trk>
    <name>Längdskidåkning - Klassisk 10.68 km, 2011-02-21</name>
    <trkseg>
      <trkpt lat="59.5226189" lon="17.8815567">
        <ele>26.5736</ele>
        <time>2011-02-21T19:15:21Z</time>
      </trkpt>
      <trkpt lat="59.5227089" lon="17.8815282">
        <ele>26.0929</ele>
        <time>2011-02-21T19:15:25Z</time>
      </trkpt>
      <trkpt lat="59.5228811" lon="17.8814617">
        <ele>26.5736</ele>
        <time>2011-02-21T19:15:30Z</time>
      </trkpt>
      <trkpt lat="59.5230094" lon="17.8812808">
        <ele>27.5349</ele>
        <time>2011-02-21T19:15:35Z</time>
      </trkpt>
      <trkpt lat="59.5231513" lon="17.8811254">
        <ele>28.9769</ele>
        <time>2011-02-21T19:15:40Z</time>
      </trkpt>
      <trkpt lat="59.5232391" lon="17.8810426">
        <ele>29.9381</ele>
        <time>2011-02-21T19:15:44Z</time>
      </trkpt>
      <trkpt lat="59.5234141" lon="17.880885">
        <ele>29.9381</ele>
        <time>2011-02-21T19:15:50Z</time>
      </trkpt>
      <trkpt lat="59.5235602" lon="17.8807773">
        <ele>30.4188</ele>
        <time>2011-02-21T19:15:55Z</time>
      </trkpt>
      <trkpt lat="59.5236898" lon="17.8807323">
        <ele>29.4575</ele>
        <time>2011-02-21T19:15:59Z</time>
      </trkpt>
      <trkpt lat="59.5237649" lon="17.8807305">
        <ele>29.4575</ele>
        <time>2011-02-21T19:16:01Z</time>
      </trkpt>
      <trkpt lat="59.5239565" lon="17.8805586">
        <ele>30.4188</ele>
        <time>2011-02-21T19:16:06Z</time>
      </trkpt>
      <trkpt lat="59.5240523" lon="17.880428">
        <ele>30.8995</ele>
        <time>2011-02-21T19:16:09Z</time>
      </trkpt>
      <trkpt lat="59.5241904" lon="17.8802344">
        <ele>31.8607</ele>
        <time>2011-02-21T19:16:14Z</time>
      </trkpt>
      <trkpt lat="59.5242886" lon="17.8801185">
        <ele>33.3029</ele>
        <time>2011-02-21T19:16:18Z</time>
      </trkpt>
      <trkpt lat="59.5244243" lon="17.8801054">
        <ele>31.3801</ele>
        <time>2011-02-21T19:16:23Z</time>
      </trkpt>
      <trkpt lat="59.5245456" lon="17.8801835">
        <ele>30.4188</ele>
        <time>2011-02-21T19:16:27Z</time>
      </trkpt>
      <trkpt lat="59.5247002" lon="17.880173">
        <ele>30.4188</ele>
        <time>2011-02-21T19:16:31Z</time>
      </trkpt>
      <trkpt lat="59.5249385" lon="17.8802898">
        <ele>30.8995</ele>
        <time>2011-02-21T19:16:36Z</time>
      </trkpt>
      <trkpt lat="59.5250812" lon="17.8803687">
        <ele>31.8607</ele>
        <time>2011-02-21T19:16:39Z</time>
      </trkpt>
      <trkpt lat="59.5252344" lon="17.880465">
        <ele>31.8607</ele>
        <time>2011-02-21T19:16:42Z</time>
      </trkpt>
      <trkpt lat="59.5254099" lon="17.8805338">
        <ele>33.3029</ele>
        <time>2011-02-21T19:16:46Z</time>
      </trkpt>
      <trkpt lat="59.5256204" lon="17.8806125">
        <ele>34.7449</ele>
        <time>2011-02-21T19:16:51Z</time>
      </trkpt>
      <trkpt lat="59.5258348" lon="17.8807103">
        <ele>35.2255</ele>
        <time>2011-02-21T19:16:56Z</time>
      </trkpt>
      <trkpt lat="59.5258716" lon="17.8807227">
        <ele>35.7061</ele>
        <time>2011-02-21T19:16:57Z</time>
      </trkpt>
      <trkpt lat="59.5260304" lon="17.8807705">
        <ele>35.2255</ele>
        <time>2011-02-21T19:17:02Z</time>
      </trkpt>
      <trkpt lat="59.5261786" lon="17.8808001">
        <ele>34.7449</ele>
        <time>2011-02-21T19:17:06Z</time>
      </trkpt>
      <trkpt lat="59.5262813" lon="17.8808064">
        <ele>32.3416</ele>
        <time>2011-02-21T19:17:10Z</time>
      </trkpt>
      <trkpt lat="59.5264445" lon="17.8808393">
        <ele>31.3801</ele>
        <time>2011-02-21T19:17:14Z</time>
      </trkpt>
      <trkpt lat="59.526645" lon="17.8809311">
        <ele>29.9381</ele>
        <time>2011-02-21T19:17:18Z</time>
      </trkpt>
      <trkpt lat="59.5268269" lon="17.8811284">
        <ele>29.9381</ele>
        <time>2011-02-21T19:17:22Z</time>
      </trkpt>
      <trkpt lat="59.5269288" lon="17.8813522">
        <ele>29.4575</ele>
        <time>2011-02-21T19:17:26Z</time>
      </trkpt>
      <trkpt lat="59.5269461" lon="17.8815106">
        <ele>29.4575</ele>
        <time>2011-02-21T19:17:30Z</time>
      </trkpt>
      <trkpt lat="59.5269478" lon="17.8816325">
        <ele>28.9769</ele>
        <time>2011-02-21T19:17:33Z</time>
      </trkpt>
      <trkpt lat="59.5270162" lon="17.8818509">
        <ele>29.4575</ele>
        <time>2011-02-21T19:17:39Z</time>
      </trkpt>
      <trkpt lat="59.527106" lon="17.88196">
        <ele>30.8995</ele>
        <time>2011-02-21T19:17:44Z</time>
      </trkpt>
      <trkpt lat="59.5272224" lon="17.8819816">
        <ele>32.8223</ele>
        <time>2011-02-21T19:17:49Z</time>
      </trkpt>
      <trkpt lat="59.5273672" lon="17.8818582">
        <ele>36.1868</ele>
        <time>2011-02-21T19:17:53Z</time>
      </trkpt>
      <trkpt lat="59.5275055" lon="17.8816957">
        <ele>38.5901</ele>
        <time>2011-02-21T19:17:58Z</time>
      </trkpt>
      <trkpt lat="59.5276366" lon="17.8815504">
        <ele>40.0321</ele>
        <time>2011-02-21T19:18:02Z</time>
      </trkpt>
      <trkpt lat="59.5278044" lon="17.8813642">
        <ele>41.9547</ele>
        <time>2011-02-21T19:18:07Z</time>
      </trkpt>
      <trkpt lat="59.5279902" lon="17.8812943">
        <ele>43.8773</ele>
        <time>2011-02-21T19:18:12Z</time>
      </trkpt>
      <trkpt lat="59.5281714" lon="17.8812878">
        <ele>45.7999</ele>
        <time>2011-02-21T19:18:16Z</time>
      </trkpt>
      <trkpt lat="59.528413" lon="17.8812949">
        <ele>44.8386</ele>
        <time>2011-02-21T19:18:22Z</time>
      </trkpt>
      <trkpt lat="59.5285367" lon="17.8813216">
        <ele>44.358</ele>
        <time>2011-02-21T19:18:26Z</time>
      </trkpt>
      <trkpt lat="59.5286517" lon="17.8813324">
        <ele>44.358</ele>
        <time>2011-02-21T19:18:30Z</time>
      </trkpt>
      <trkpt lat="59.5287507" lon="17.8813756">
        <ele>43.8773</ele>
        <time>2011-02-21T19:18:34Z</time>
      </trkpt>
      <trkpt lat="59.5288719" lon="17.8814704">
        <ele>43.3966</ele>
        <time>2011-02-21T19:18:38Z</time>
      </trkpt>
      <trkpt lat="59.5290921" lon="17.8816266">
        <ele>42.916</ele>
        <time>2011-02-21T19:18:43Z</time>
      </trkpt>
      <trkpt lat="59.5291926" lon="17.8817053">
        <ele>41.9547</ele>
        <time>2011-02-21T19:18:46Z</time>
      </trkpt>
      <trkpt lat="59.5293309" lon="17.8817693">
        <ele>40.0321</ele>
        <time>2011-02-21T19:18:50Z</time>
      </trkpt>
      <trkpt lat="59.5294964" lon="17.881925">
        <ele>35.7061</ele>
        <time>2011-02-21T19:18:55Z</time>
      </trkpt>
      <trkpt lat="59.5296012" lon="17.8820615">
        <ele>33.3029</ele>
        <time>2011-02-21T19:19:00Z</time>
      </trkpt>
      <trkpt lat="59.5297302" lon="17.8821563">
        <ele>31.8607</ele>
        <time>2011-02-21T19:19:04Z</time>
      </trkpt>
      <trkpt lat="59.5298344" lon="17.8823312">
        <ele>30.4188</ele>
        <time>2011-02-21T19:19:08Z</time>
      </trkpt>
      <trkpt lat="59.5299329" lon="17.8825188">
        <ele>28.9769</ele>
        <time>2011-02-21T19:19:12Z</time>
      </trkpt>
      <trkpt lat="59.5300173" lon="17.8826298">
        <ele>28.4962</ele>
        <time>2011-02-21T19:19:15Z</time>
      </trkpt>
      <trkpt lat="59.5302891" lon="17.8827364">
        <ele>28.0155</ele>
        <time>2011-02-21T19:19:21Z</time>
      </trkpt>
      <trkpt lat="59.5304156" lon="17.8828271">
        <ele>26.0929</ele>
        <time>2011-02-21T19:19:23Z</time>
      </trkpt>
      <trkpt lat="59.5306766" lon="17.8832647">
        <ele>20.325</ele>
        <time>2011-02-21T19:19:27Z</time>
      </trkpt>
      <trkpt lat="59.5307274" lon="17.8834025">
        <ele>18.8831</ele>
        <time>2011-02-21T19:19:28Z</time>
      </trkpt>
      <trkpt lat="59.5307684" lon="17.8835378">
        <ele>17.9218</ele>
        <time>2011-02-21T19:19:29Z</time>
      </trkpt>
      <trkpt lat="59.5309054" lon="17.8838308">
        <ele>16.4797</ele>
        <time>2011-02-21T19:19:32Z</time>
      </trkpt>
      <trkpt lat="59.5312687" lon="17.8837355">
        <ele>15.5184</ele>
        <time>2011-02-21T19:19:36Z</time>
      </trkpt>
      <trkpt lat="59.5314065" lon="17.8835261">
        <ele>15.999</ele>
        <time>2011-02-21T19:19:38Z</time>
      </trkpt>
      <trkpt lat="59.5316147" lon="17.8830922">
        <ele>16.9604</ele>
        <time>2011-02-21T19:19:42Z</time>
      </trkpt>
      <trkpt lat="59.5317373" lon="17.8826939">
        <ele>17.4412</ele>
        <time>2011-02-21T19:19:46Z</time>
      </trkpt>
      <trkpt lat="59.5317843" lon="17.8825239">
        <ele>16.9604</ele>
        <time>2011-02-21T19:19:48Z</time>
      </trkpt>
      <trkpt lat="59.5318506" lon="17.8822333">
        <ele>17.4412</ele>
        <time>2011-02-21T19:19:52Z</time>
      </trkpt>
      <trkpt lat="59.5318888" lon="17.8821128">
        <ele>17.4412</ele>
        <time>2011-02-21T19:19:54Z</time>
      </trkpt>
      <trkpt lat="59.5319925" lon="17.8818734">
        <ele>18.8831</ele>
        <time>2011-02-21T19:19:59Z</time>
      </trkpt>
      <trkpt lat="59.5320473" lon="17.8817787">
        <ele>19.3638</ele>
        <time>2011-02-21T19:20:01Z</time>
      </trkpt>
      <trkpt lat="59.5321627" lon="17.8814926">
        <ele>20.325</ele>
        <time>2011-02-21T19:20:07Z</time>
      </trkpt>
      <trkpt lat="59.5322524" lon="17.8811958">
        <ele>20.8057</ele>
        <time>2011-02-21T19:20:12Z</time>
      </trkpt>
      <trkpt lat="59.5323769" lon="17.8808584">
        <ele>20.325</ele>
        <time>2011-02-21T19:20:18Z</time>
      </trkpt>
      <trkpt lat="59.5324429" lon="17.8806838">
        <ele>20.8057</ele>
        <time>2011-02-21T19:20:22Z</time>
      </trkpt>
      <trkpt lat="59.5325525" lon="17.8804587">
        <ele>20.8057</ele>
        <time>2011-02-21T19:20:27Z</time>
      </trkpt>
      <trkpt lat="59.5326798" lon="17.8801602">
        <ele>23.209</ele>
        <time>2011-02-21T19:20:32Z</time>
      </trkpt>
      <trkpt lat="59.5327842" lon="17.8798708">
        <ele>24.651</ele>
        <time>2011-02-21T19:20:37Z</time>
      </trkpt>
      <trkpt lat="59.5328342" lon="17.8797156">
        <ele>25.1317</ele>
        <time>2011-02-21T19:20:39Z</time>
      </trkpt>
      <trkpt lat="59.5329046" lon="17.8794137">
        <ele>25.1317</ele>
        <time>2011-02-21T19:20:43Z</time>
      </trkpt>
      <trkpt lat="59.5329336" lon="17.8792735">
        <ele>24.1703</ele>
        <time>2011-02-21T19:20:45Z</time>
      </trkpt>
      <trkpt lat="59.5329583" lon="17.8789362">
        <ele>24.1703</ele>
        <time>2011-02-21T19:20:49Z</time>
      </trkpt>
      <trkpt lat="59.5330458" lon="17.8785325">
        <ele>24.651</ele>
        <time>2011-02-21T19:20:54Z</time>
      </trkpt>
      <trkpt lat="59.5331714" lon="17.878221">
        <ele>25.6123</ele>
        <time>2011-02-21T19:20:59Z</time>
      </trkpt>
      <trkpt lat="59.5332365" lon="17.8779068">
        <ele>24.651</ele>
        <time>2011-02-21T19:21:05Z</time>
      </trkpt>
      <trkpt lat="59.5333315" lon="17.877638">
        <ele>24.1703</ele>
        <time>2011-02-21T19:21:09Z</time>
      </trkpt>
      <trkpt lat="59.5334923" lon="17.8773579">
        <ele>23.209</ele>
        <time>2011-02-21T19:21:13Z</time>
      </trkpt>
      <trkpt lat="59.5337061" lon="17.8770604">
        <ele>23.209</ele>
        <time>2011-02-21T19:21:18Z</time>
      </trkpt>
      <trkpt lat="59.5338125" lon="17.8769132">
        <ele>22.7283</ele>
        <time>2011-02-21T19:21:21Z</time>
      </trkpt>
      <trkpt lat="59.5339917" lon="17.8767671">
        <ele>22.2476</ele>
        <time>2011-02-21T19:21:25Z</time>
      </trkpt>
      <trkpt lat="59.5341727" lon="17.8767814">
        <ele>22.2476</ele>
        <time>2011-02-21T19:21:29Z</time>
      </trkpt>
      <trkpt lat="59.5343903" lon="17.8767635">
        <ele>22.7283</ele>
        <time>2011-02-21T19:21:35Z</time>
      </trkpt>
      <trkpt lat="59.534412" lon="17.876747">
        <ele>23.209</ele>
        <time>2011-02-21T19:21:36Z</time>
      </trkpt>
      <trkpt lat="59.5345548" lon="17.8766117">
        <ele>23.6896</ele>
        <time>2011-02-21T19:21:42Z</time>
      </trkpt>
      <trkpt lat="59.5346726" lon="17.8765432">
        <ele>24.1703</ele>
        <time>2011-02-21T19:21:46Z</time>
      </trkpt>
      <trkpt lat="59.5348574" lon="17.8764379">
        <ele>23.209</ele>
        <time>2011-02-21T19:21:51Z</time>
      </trkpt>
      <trkpt lat="59.5350517" lon="17.8763043">
        <ele>21.767</ele>
        <time>2011-02-21T19:21:55Z</time>
      </trkpt>
      <trkpt lat="59.5351375" lon="17.876254">
        <ele>21.767</ele>
        <time>2011-02-21T19:21:57Z</time>
      </trkpt>
      <trkpt lat="59.5352673" lon="17.8762405">
        <ele>20.325</ele>
        <time>2011-02-21T19:22:01Z</time>
      </trkpt>
      <trkpt lat="59.5354587" lon="17.8763084">
        <ele>19.3638</ele>
        <time>2011-02-21T19:22:06Z</time>
      </trkpt>
      <trkpt lat="59.5357846" lon="17.876315">
        <ele>17.9218</ele>
        <time>2011-02-21T19:22:11Z</time>
      </trkpt>
      <trkpt lat="59.5361314" lon="17.8761901">
        <ele>15.999</ele>
        <time>2011-02-21T19:22:16Z</time>
      </trkpt>
      <trkpt lat="59.5362143" lon="17.8758541">
        <ele>16.4797</ele>
        <time>2011-02-21T19:22:19Z</time>
      </trkpt>
      <trkpt lat="59.5362326" lon="17.8757475">
        <ele>15.999</ele>
        <time>2011-02-21T19:22:20Z</time>
      </trkpt>
      <trkpt lat="59.5363151" lon="17.8753428">
        <ele>14.0764</ele>
        <time>2011-02-21T19:22:25Z</time>
      </trkpt>
      <trkpt lat="59.5363837" lon="17.8750567">
        <ele>13.5958</ele>
        <time>2011-02-21T19:22:29Z</time>
      </trkpt>
      <trkpt lat="59.5364022" lon="17.8749323">
        <ele>12.6344</ele>
        <time>2011-02-21T19:22:31Z</time>
      </trkpt>
      <trkpt lat="59.5364673" lon="17.8746355">
        <ele>12.1538</ele>
        <time>2011-02-21T19:22:36Z</time>
      </trkpt>
      <trkpt lat="59.5365255" lon="17.8743807">
        <ele>12.6344</ele>
        <time>2011-02-21T19:22:41Z</time>
      </trkpt>
      <trkpt lat="59.5365383" lon="17.874211">
        <ele>14.0764</ele>
        <time>2011-02-21T19:22:45Z</time>
      </trkpt>
      <trkpt lat="59.5365259" lon="17.8740224">
        <ele>15.0377</ele>
        <time>2011-02-21T19:22:50Z</time>
      </trkpt>
      <trkpt lat="59.5364981" lon="17.8738705">
        <ele>15.999</ele>
        <time>2011-02-21T19:22:54Z</time>
      </trkpt>
      <trkpt lat="59.5364763" lon="17.8736752">
        <ele>17.4412</ele>
        <time>2011-02-21T19:22:58Z</time>
      </trkpt>
      <trkpt lat="59.5364276" lon="17.8734914">
        <ele>20.8057</ele>
        <time>2011-02-21T19:23:02Z</time>
      </trkpt>
      <trkpt lat="59.5364026" lon="17.8734439">
        <ele>20.8057</ele>
        <time>2011-02-21T19:23:03Z</time>
      </trkpt>
      <trkpt lat="59.5362752" lon="17.8732577">
        <ele>21.2864</ele>
        <time>2011-02-21T19:23:07Z</time>
      </trkpt>
      <trkpt lat="59.5361073" lon="17.8731076">
        <ele>22.7283</ele>
        <time>2011-02-21T19:23:12Z</time>
      </trkpt>
      <trkpt lat="59.5359785" lon="17.8729808">
        <ele>21.767</ele>
        <time>2011-02-21T19:23:16Z</time>
      </trkpt>
      <trkpt lat="59.5358379" lon="17.872817">
        <ele>22.2476</ele>
        <time>2011-02-21T19:23:20Z</time>
      </trkpt>
      <trkpt lat="59.5357452" lon="17.8726361">
        <ele>23.6896</ele>
        <time>2011-02-21T19:23:24Z</time>
      </trkpt>
      <trkpt lat="59.5356848" lon="17.8724674">
        <ele>23.209</ele>
        <time>2011-02-21T19:23:28Z</time>
      </trkpt>
      <trkpt lat="59.5355869" lon="17.8722817">
        <ele>22.2476</ele>
        <time>2011-02-21T19:23:33Z</time>
      </trkpt>
      <trkpt lat="59.5354775" lon="17.8721006">
        <ele>21.767</ele>
        <time>2011-02-21T19:23:37Z</time>
      </trkpt>
      <trkpt lat="59.5353345" lon="17.8718333">
        <ele>24.1703</ele>
        <time>2011-02-21T19:23:42Z</time>
      </trkpt>
      <trkpt lat="59.5352092" lon="17.8715684">
        <ele>25.6123</ele>
        <time>2011-02-21T19:23:47Z</time>
      </trkpt>
      <trkpt lat="59.5351181" lon="17.8713578">
        <ele>25.1317</ele>
        <time>2011-02-21T19:23:51Z</time>
      </trkpt>
      <trkpt lat="59.5350084" lon="17.8711748">
        <ele>25.1317</ele>
        <time>2011-02-21T19:23:55Z</time>
      </trkpt>
      <trkpt lat="59.5349077" lon="17.8709463">
        <ele>23.6896</ele>
        <time>2011-02-21T19:23:59Z</time>
      </trkpt>
      <trkpt lat="59.534792" lon="17.8707202">
        <ele>22.7283</ele>
        <time>2011-02-21T19:24:03Z</time>
      </trkpt>
      <trkpt lat="59.5346938" lon="17.8704234">
        <ele>22.2476</ele>
        <time>2011-02-21T19:24:08Z</time>
      </trkpt>
      <trkpt lat="59.5346458" lon="17.8703341">
        <ele>21.767</ele>
        <time>2011-02-21T19:24:10Z</time>
      </trkpt>
      <trkpt lat="59.5344907" lon="17.8702516">
        <ele>19.8444</ele>
        <time>2011-02-21T19:24:15Z</time>
      </trkpt>
      <trkpt lat="59.5342519" lon="17.8702664">
        <ele>18.4023</ele>
        <time>2011-02-21T19:24:20Z</time>
      </trkpt>
      <trkpt lat="59.5340153" lon="17.8701398">
        <ele>16.9604</ele>
        <time>2011-02-21T19:24:25Z</time>
      </trkpt>
      <trkpt lat="59.5339245" lon="17.8700498">
        <ele>16.9604</ele>
        <time>2011-02-21T19:24:27Z</time>
      </trkpt>
      <trkpt lat="59.5338396" lon="17.8699803">
        <ele>15.5184</ele>
        <time>2011-02-21T19:24:29Z</time>
      </trkpt>
      <trkpt lat="59.5336966" lon="17.8697721">
        <ele>14.557</ele>
        <time>2011-02-21T19:24:34Z</time>
      </trkpt>
      <trkpt lat="59.5336126" lon="17.8696048">
        <ele>15.0377</ele>
        <time>2011-02-21T19:24:37Z</time>
      </trkpt>
      <trkpt lat="59.5334914" lon="17.8693076">
        <ele>16.4797</ele>
        <time>2011-02-21T19:24:43Z</time>
      </trkpt>
      <trkpt lat="59.5333942" lon="17.8690759">
        <ele>17.4412</ele>
        <time>2011-02-21T19:24:47Z</time>
      </trkpt>
      <trkpt lat="59.5332956" lon="17.8687921">
        <ele>17.4412</ele>
        <time>2011-02-21T19:24:51Z</time>
      </trkpt>
      <trkpt lat="59.5332439" lon="17.8686559">
        <ele>17.4412</ele>
        <time>2011-02-21T19:24:53Z</time>
      </trkpt>
      <trkpt lat="59.5331645" lon="17.8684544">
        <ele>17.4412</ele>
        <time>2011-02-21T19:24:56Z</time>
      </trkpt>
      <trkpt lat="59.5330832" lon="17.8681814">
        <ele>16.9604</ele>
        <time>2011-02-21T19:25:00Z</time>
      </trkpt>
      <trkpt lat="59.5330225" lon="17.8678823">
        <ele>15.5184</ele>
        <time>2011-02-21T19:25:05Z</time>
      </trkpt>
      <trkpt lat="59.5329865" lon="17.8676618">
        <ele>15.0377</ele>
        <time>2011-02-21T19:25:09Z</time>
      </trkpt>
      <trkpt lat="59.5329241" lon="17.8674199">
        <ele>15.0377</ele>
        <time>2011-02-21T19:25:13Z</time>
      </trkpt>
      <trkpt lat="59.5328828" lon="17.8672708">
        <ele>15.0377</ele>
        <time>2011-02-21T19:25:15Z</time>
      </trkpt>
      <trkpt lat="59.5327616" lon="17.8669334">
        <ele>15.5184</ele>
        <time>2011-02-21T19:25:20Z</time>
      </trkpt>
      <trkpt lat="59.532682" lon="17.8666414">
        <ele>16.9604</ele>
        <time>2011-02-21T19:25:25Z</time>
      </trkpt>
      <trkpt lat="59.5325791" lon="17.8663802">
        <ele>17.9218</ele>
        <time>2011-02-21T19:25:30Z</time>
      </trkpt>
      <trkpt lat="59.5325025" lon="17.866136">
        <ele>18.8831</ele>
        <time>2011-02-21T19:25:34Z</time>
      </trkpt>
      <trkpt lat="59.5324599" lon="17.8659295">
        <ele>20.8057</ele>
        <time>2011-02-21T19:25:38Z</time>
      </trkpt>
      <trkpt lat="59.5324156" lon="17.865644">
        <ele>20.325</ele>
        <time>2011-02-21T19:25:43Z</time>
      </trkpt>
      <trkpt lat="59.5323813" lon="17.8653886">
        <ele>20.325</ele>
        <time>2011-02-21T19:25:47Z</time>
      </trkpt>
      <trkpt lat="59.5323338" lon="17.8650578">
        <ele>19.8444</ele>
        <time>2011-02-21T19:25:52Z</time>
      </trkpt>
      <trkpt lat="59.5323118" lon="17.8647806">
        <ele>20.325</ele>
        <time>2011-02-21T19:25:56Z</time>
      </trkpt>
      <trkpt lat="59.5322942" lon="17.8644603">
        <ele>20.325</ele>
        <time>2011-02-21T19:26:01Z</time>
      </trkpt>
      <trkpt lat="59.5322676" lon="17.8642175">
        <ele>20.8057</ele>
        <time>2011-02-21T19:26:05Z</time>
      </trkpt>
      <trkpt lat="59.5322453" lon="17.8639884">
        <ele>21.767</ele>
        <time>2011-02-21T19:26:09Z</time>
      </trkpt>
      <trkpt lat="59.5322194" lon="17.8637974">
        <ele>22.2476</ele>
        <time>2011-02-21T19:26:12Z</time>
      </trkpt>
      <trkpt lat="59.5321881" lon="17.8635659">
        <ele>21.2864</ele>
        <time>2011-02-21T19:26:16Z</time>
      </trkpt>
      <trkpt lat="59.5321556" lon="17.8633166">
        <ele>21.2864</ele>
        <time>2011-02-21T19:26:20Z</time>
      </trkpt>
      <trkpt lat="59.5321209" lon="17.8631088">
        <ele>21.2864</ele>
        <time>2011-02-21T19:26:24Z</time>
      </trkpt>
      <trkpt lat="59.5320903" lon="17.8629098">
        <ele>19.8444</ele>
        <time>2011-02-21T19:26:28Z</time>
      </trkpt>
      <trkpt lat="59.5320582" lon="17.8626586">
        <ele>20.8057</ele>
        <time>2011-02-21T19:26:32Z</time>
      </trkpt>
      <trkpt lat="59.5320108" lon="17.8624579">
        <ele>20.325</ele>
        <time>2011-02-21T19:26:36Z</time>
      </trkpt>
      <trkpt lat="59.5319732" lon="17.8622641">
        <ele>19.8444</ele>
        <time>2011-02-21T19:26:40Z</time>
      </trkpt>
      <trkpt lat="59.5319349" lon="17.8620454">
        <ele>22.2476</ele>
        <time>2011-02-21T19:26:44Z</time>
      </trkpt>
      <trkpt lat="59.5318997" lon="17.8617211">
        <ele>25.6123</ele>
        <time>2011-02-21T19:26:50Z</time>
      </trkpt>
      <trkpt lat="59.5318914" lon="17.8616702">
        <ele>26.0929</ele>
        <time>2011-02-21T19:26:51Z</time>
      </trkpt>
      <trkpt lat="59.531853" lon="17.8613944">
        <ele>27.5349</ele>
        <time>2011-02-21T19:26:56Z</time>
      </trkpt>
      <trkpt lat="59.5318278" lon="17.8611343">
        <ele>28.4962</ele>
        <time>2011-02-21T19:27:01Z</time>
      </trkpt>
      <trkpt lat="59.5318048" lon="17.8609768">
        <ele>28.9769</ele>
        <time>2011-02-21T19:27:04Z</time>
      </trkpt>
      <trkpt lat="59.5317581" lon="17.8607238">
        <ele>29.4575</ele>
        <time>2011-02-21T19:27:09Z</time>
      </trkpt>
      <trkpt lat="59.5317116" lon="17.8605168">
        <ele>28.9769</ele>
        <time>2011-02-21T19:27:14Z</time>
      </trkpt>
      <trkpt lat="59.5316498" lon="17.8603086">
        <ele>29.4575</ele>
        <time>2011-02-21T19:27:19Z</time>
      </trkpt>
      <trkpt lat="59.5315754" lon="17.8600743">
        <ele>30.4188</ele>
        <time>2011-02-21T19:27:24Z</time>
      </trkpt>
      <trkpt lat="59.5315345" lon="17.8599703">
        <ele>31.8607</ele>
        <time>2011-02-21T19:27:27Z</time>
      </trkpt>
      <trkpt lat="59.5314975" lon="17.8599076">
        <ele>33.7834</ele>
        <time>2011-02-21T19:27:29Z</time>
      </trkpt>
      <trkpt lat="59.5314474" lon="17.8597902">
        <ele>35.2255</ele>
        <time>2011-02-21T19:27:32Z</time>
      </trkpt>
      <trkpt lat="59.5313921" lon="17.8596849">
        <ele>34.7449</ele>
        <time>2011-02-21T19:27:35Z</time>
      </trkpt>
      <trkpt lat="59.5313134" lon="17.8595619">
        <ele>35.2255</ele>
        <time>2011-02-21T19:27:39Z</time>
      </trkpt>
      <trkpt lat="59.5312418" lon="17.8594472">
        <ele>34.7449</ele>
        <time>2011-02-21T19:27:43Z</time>
      </trkpt>
      <trkpt lat="59.5311537" lon="17.8592845">
        <ele>34.2642</ele>
        <time>2011-02-21T19:27:48Z</time>
      </trkpt>
      <trkpt lat="59.5311101" lon="17.8592301">
        <ele>33.7834</ele>
        <time>2011-02-21T19:27:50Z</time>
      </trkpt>
      <trkpt lat="59.5310108" lon="17.8589725">
        <ele>31.8607</ele>
        <time>2011-02-21T19:27:56Z</time>
      </trkpt>
      <trkpt lat="59.5309822" lon="17.8587494">
        <ele>33.3029</ele>
        <time>2011-02-21T19:28:00Z</time>
      </trkpt>
      <trkpt lat="59.5309912" lon="17.8584624">
        <ele>34.7449</ele>
        <time>2011-02-21T19:28:05Z</time>
      </trkpt>
      <trkpt lat="59.5310038" lon="17.858262">
        <ele>35.2255</ele>
        <time>2011-02-21T19:28:09Z</time>
      </trkpt>
      <trkpt lat="59.5310026" lon="17.8580567">
        <ele>35.7061</ele>
        <time>2011-02-21T19:28:13Z</time>
      </trkpt>
      <trkpt lat="59.530965" lon="17.8577657">
        <ele>36.6675</ele>
        <time>2011-02-21T19:28:18Z</time>
      </trkpt>
      <trkpt lat="59.5309372" lon="17.857515">
        <ele>37.6287</ele>
        <time>2011-02-21T19:28:22Z</time>
      </trkpt>
      <trkpt lat="59.5308797" lon="17.8572482">
        <ele>38.1094</ele>
        <time>2011-02-21T19:28:26Z</time>
      </trkpt>
      <trkpt lat="59.5308062" lon="17.8569519">
        <ele>37.6287</ele>
        <time>2011-02-21T19:28:31Z</time>
      </trkpt>
      <trkpt lat="59.530745" lon="17.8566069">
        <ele>37.6287</ele>
        <time>2011-02-21T19:28:36Z</time>
      </trkpt>
      <trkpt lat="59.5307003" lon="17.8562915">
        <ele>36.6675</ele>
        <time>2011-02-21T19:28:40Z</time>
      </trkpt>
      <trkpt lat="59.5306741" lon="17.8559361">
        <ele>36.1868</ele>
        <time>2011-02-21T19:28:45Z</time>
      </trkpt>
      <trkpt lat="59.530625" lon="17.8557118">
        <ele>35.7061</ele>
        <time>2011-02-21T19:28:49Z</time>
      </trkpt>
      <trkpt lat="59.5306149" lon="17.855664">
        <ele>36.1868</ele>
        <time>2011-02-21T19:28:50Z</time>
      </trkpt>
      <trkpt lat="59.5305477" lon="17.8555837">
        <ele>37.1481</ele>
        <time>2011-02-21T19:28:53Z</time>
      </trkpt>
      <trkpt lat="59.5303758" lon="17.855593">
        <ele>37.6287</ele>
        <time>2011-02-21T19:28:59Z</time>
      </trkpt>
      <trkpt lat="59.5302426" lon="17.8554583">
        <ele>36.6675</ele>
        <time>2011-02-21T19:29:03Z</time>
      </trkpt>
      <trkpt lat="59.5301305" lon="17.8552221">
        <ele>36.6675</ele>
        <time>2011-02-21T19:29:07Z</time>
      </trkpt>
      <trkpt lat="59.5300514" lon="17.855034">
        <ele>35.7061</ele>
        <time>2011-02-21T19:29:10Z</time>
      </trkpt>
      <trkpt lat="59.5300092" lon="17.8549016">
        <ele>35.2255</ele>
        <time>2011-02-21T19:29:12Z</time>
      </trkpt>
      <trkpt lat="59.529928" lon="17.854712">
        <ele>34.2642</ele>
        <time>2011-02-21T19:29:15Z</time>
      </trkpt>
      <trkpt lat="59.5297713" lon="17.8543044">
        <ele>31.8607</ele>
        <time>2011-02-21T19:29:20Z</time>
      </trkpt>
      <trkpt lat="59.5296661" lon="17.8540597">
        <ele>31.3801</ele>
        <time>2011-02-21T19:29:23Z</time>
      </trkpt>
      <trkpt lat="59.5296042" lon="17.8538972">
        <ele>31.8607</ele>
        <time>2011-02-21T19:29:25Z</time>
      </trkpt>
      <trkpt lat="59.5294754" lon="17.8536273">
        <ele>32.3416</ele>
        <time>2011-02-21T19:29:30Z</time>
      </trkpt>
      <trkpt lat="59.5294163" lon="17.8534679">
        <ele>32.3416</ele>
        <time>2011-02-21T19:29:33Z</time>
      </trkpt>
      <trkpt lat="59.5292811" lon="17.8531434">
        <ele>32.3416</ele>
        <time>2011-02-21T19:29:38Z</time>
      </trkpt>
      <trkpt lat="59.5292183" lon="17.8529646">
        <ele>32.8223</ele>
        <time>2011-02-21T19:29:41Z</time>
      </trkpt>
      <trkpt lat="59.5291429" lon="17.8527538">
        <ele>33.3029</ele>
        <time>2011-02-21T19:29:44Z</time>
      </trkpt>
      <trkpt lat="59.5290525" lon="17.8525813">
        <ele>33.7834</ele>
        <time>2011-02-21T19:29:47Z</time>
      </trkpt>
      <trkpt lat="59.5289217" lon="17.8524581">
        <ele>33.7834</ele>
        <time>2011-02-21T19:29:52Z</time>
      </trkpt>
      <trkpt lat="59.528802" lon="17.8524562">
        <ele>35.7061</ele>
        <time>2011-02-21T19:29:57Z</time>
      </trkpt>
      <trkpt lat="59.5286765" lon="17.8524837">
        <ele>36.6675</ele>
        <time>2011-02-21T19:30:02Z</time>
      </trkpt>
      <trkpt lat="59.5285554" lon="17.8524447">
        <ele>37.1481</ele>
        <time>2011-02-21T19:30:07Z</time>
      </trkpt>
      <trkpt lat="59.5284466" lon="17.8523419">
        <ele>35.7061</ele>
        <time>2011-02-21T19:30:11Z</time>
      </trkpt>
      <trkpt lat="59.5283181" lon="17.8522355">
        <ele>36.1868</ele>
        <time>2011-02-21T19:30:16Z</time>
      </trkpt>
      <trkpt lat="59.5282955" lon="17.8522233">
        <ele>36.1868</ele>
        <time>2011-02-21T19:30:17Z</time>
      </trkpt>
      <trkpt lat="59.5281549" lon="17.8521093">
        <ele>33.7834</ele>
        <time>2011-02-21T19:30:22Z</time>
      </trkpt>
      <trkpt lat="59.5280602" lon="17.8519458">
        <ele>33.3029</ele>
        <time>2011-02-21T19:30:27Z</time>
      </trkpt>
      <trkpt lat="59.5279882" lon="17.8517472">
        <ele>33.3029</ele>
        <time>2011-02-21T19:30:31Z</time>
      </trkpt>
      <trkpt lat="59.5279078" lon="17.8515031">
        <ele>34.2642</ele>
        <time>2011-02-21T19:30:36Z</time>
      </trkpt>
      <trkpt lat="59.5278005" lon="17.8513016">
        <ele>35.7061</ele>
        <time>2011-02-21T19:30:42Z</time>
      </trkpt>
      <trkpt lat="59.5276974" lon="17.8511284">
        <ele>38.1094</ele>
        <time>2011-02-21T19:30:47Z</time>
      </trkpt>
      <trkpt lat="59.527591" lon="17.8509591">
        <ele>38.1094</ele>
        <time>2011-02-21T19:30:51Z</time>
      </trkpt>
      <trkpt lat="59.5275756" lon="17.8509219">
        <ele>38.5901</ele>
        <time>2011-02-21T19:30:52Z</time>
      </trkpt>
      <trkpt lat="59.527553" lon="17.8507709">
        <ele>39.0707</ele>
        <time>2011-02-21T19:30:56Z</time>
      </trkpt>
      <trkpt lat="59.5275047" lon="17.8505643">
        <ele>41.9547</ele>
        <time>2011-02-21T19:31:02Z</time>
      </trkpt>
      <trkpt lat="59.5274955" lon="17.8505011">
        <ele>42.4354</ele>
        <time>2011-02-21T19:31:04Z</time>
      </trkpt>
      <trkpt lat="59.5275008" lon="17.8502695">
        <ele>44.358</ele>
        <time>2011-02-21T19:31:10Z</time>
      </trkpt>
      <trkpt lat="59.5275034" lon="17.8499716">
        <ele>46.7612</ele>
        <time>2011-02-21T19:31:17Z</time>
      </trkpt>
      <trkpt lat="59.5275013" lon="17.8499159">
        <ele>46.7612</ele>
        <time>2011-02-21T19:31:18Z</time>
      </trkpt>
      <trkpt lat="59.5274163" lon="17.8495884">
        <ele>47.2418</ele>
        <time>2011-02-21T19:31:23Z</time>
      </trkpt>
      <trkpt lat="59.5273496" lon="17.8493023">
        <ele>46.2806</ele>
        <time>2011-02-21T19:31:27Z</time>
      </trkpt>
      <trkpt lat="59.5272997" lon="17.8491206">
        <ele>45.7999</ele>
        <time>2011-02-21T19:31:29Z</time>
      </trkpt>
      <trkpt lat="59.527241" lon="17.8486069">
        <ele>42.916</ele>
        <time>2011-02-21T19:31:33Z</time>
      </trkpt>
      <trkpt lat="59.527137" lon="17.8476149">
        <ele>38.1094</ele>
        <time>2011-02-21T19:31:39Z</time>
      </trkpt>
      <trkpt lat="59.5270046" lon="17.8470694">
        <ele>34.2642</ele>
        <time>2011-02-21T19:31:43Z</time>
      </trkpt>
      <trkpt lat="59.5268323" lon="17.8465709">
        <ele>31.3801</ele>
        <time>2011-02-21T19:31:47Z</time>
      </trkpt>
      <trkpt lat="59.5267775" lon="17.846449">
        <ele>30.4188</ele>
        <time>2011-02-21T19:31:48Z</time>
      </trkpt>
      <trkpt lat="59.5265642" lon="17.8461957">
        <ele>27.5349</ele>
        <time>2011-02-21T19:31:51Z</time>
      </trkpt>
      <trkpt lat="59.5264852" lon="17.8461519">
        <ele>26.5736</ele>
        <time>2011-02-21T19:31:52Z</time>
      </trkpt>
      <trkpt lat="59.5261351" lon="17.8461601">
        <ele>25.1317</ele>
        <time>2011-02-21T19:31:57Z</time>
      </trkpt>
      <trkpt lat="59.5260257" lon="17.8462576">
        <ele>26.0929</ele>
        <time>2011-02-21T19:32:02Z</time>
      </trkpt>
      <trkpt lat="59.525983" lon="17.8463684">
        <ele>29.4575</ele>
        <time>2011-02-21T19:32:07Z</time>
      </trkpt>
      <trkpt lat="59.5259405" lon="17.8464741">
        <ele>33.7834</ele>
        <time>2011-02-21T19:32:11Z</time>
      </trkpt>
      <trkpt lat="59.5258834" lon="17.8465843">
        <ele>37.6287</ele>
        <time>2011-02-21T19:32:15Z</time>
      </trkpt>
      <trkpt lat="59.5258244" lon="17.846644">
        <ele>40.0321</ele>
        <time>2011-02-21T19:32:19Z</time>
      </trkpt>
      <trkpt lat="59.525681" lon="17.8466982">
        <ele>42.916</ele>
        <time>2011-02-21T19:32:26Z</time>
      </trkpt>
      <trkpt lat="59.5255749" lon="17.8467454">
        <ele>42.916</ele>
        <time>2011-02-21T19:32:31Z</time>
      </trkpt>
      <trkpt lat="59.5254514" lon="17.8468039">
        <ele>43.3966</ele>
        <time>2011-02-21T19:32:36Z</time>
      </trkpt>
      <trkpt lat="59.5253624" lon="17.8468144">
        <ele>43.8773</ele>
        <time>2011-02-21T19:32:40Z</time>
      </trkpt>
      <trkpt lat="59.5252428" lon="17.8467399">
        <ele>43.8773</ele>
        <time>2011-02-21T19:32:46Z</time>
      </trkpt>
      <trkpt lat="59.5251166" lon="17.8467409">
        <ele>43.8773</ele>
        <time>2011-02-21T19:32:50Z</time>
      </trkpt>
      <trkpt lat="59.5249853" lon="17.8468366">
        <ele>43.3966</ele>
        <time>2011-02-21T19:32:54Z</time>
      </trkpt>
      <trkpt lat="59.5248685" lon="17.8469139">
        <ele>40.9934</ele>
        <time>2011-02-21T19:32:58Z</time>
      </trkpt>
      <trkpt lat="59.5247371" lon="17.8469368">
        <ele>40.0321</ele>
        <time>2011-02-21T19:33:02Z</time>
      </trkpt>
      <trkpt lat="59.5245342" lon="17.8470466">
        <ele>37.1481</ele>
        <time>2011-02-21T19:33:06Z</time>
      </trkpt>
      <trkpt lat="59.5243982" lon="17.8471942">
        <ele>35.7061</ele>
        <time>2011-02-21T19:33:09Z</time>
      </trkpt>
      <trkpt lat="59.5241927" lon="17.8475003">
        <ele>31.8607</ele>
        <time>2011-02-21T19:33:14Z</time>
      </trkpt>
      <trkpt lat="59.5241495" lon="17.8476311">
        <ele>31.8607</ele>
        <time>2011-02-21T19:33:16Z</time>
      </trkpt>
      <trkpt lat="59.5240705" lon="17.8478318">
        <ele>30.4188</ele>
        <time>2011-02-21T19:33:19Z</time>
      </trkpt>
      <trkpt lat="59.5239081" lon="17.8482352">
        <ele>29.9381</ele>
        <time>2011-02-21T19:33:25Z</time>
      </trkpt>
      <trkpt lat="59.5237762" lon="17.8484217">
        <ele>28.9769</ele>
        <time>2011-02-21T19:33:28Z</time>
      </trkpt>
      <trkpt lat="59.5235731" lon="17.8485192">
        <ele>28.0155</ele>
        <time>2011-02-21T19:33:32Z</time>
      </trkpt>
      <trkpt lat="59.5233162" lon="17.84849">
        <ele>26.5736</ele>
        <time>2011-02-21T19:33:37Z</time>
      </trkpt>
      <trkpt lat="59.5230178" lon="17.8485813">
        <ele>26.5736</ele>
        <time>2011-02-21T19:33:43Z</time>
      </trkpt>
      <trkpt lat="59.5227832" lon="17.8488314">
        <ele>26.0929</ele>
        <time>2011-02-21T19:33:48Z</time>
      </trkpt>
      <trkpt lat="59.5227407" lon="17.848888">
        <ele>26.0929</ele>
        <time>2011-02-21T19:33:49Z</time>
      </trkpt>
      <trkpt lat="59.5226707" lon="17.8489963">
        <ele>25.6123</ele>
        <time>2011-02-21T19:33:51Z</time>
      </trkpt>
      <trkpt lat="59.5225656" lon="17.849244">
        <ele>25.1317</ele>
        <time>2011-02-21T19:33:55Z</time>
      </trkpt>
      <trkpt lat="59.522374" lon="17.8496039">
        <ele>25.1317</ele>
        <time>2011-02-21T19:34:01Z</time>
      </trkpt>
      <trkpt lat="59.5223482" lon="17.8496557">
        <ele>24.651</ele>
        <time>2011-02-21T19:34:02Z</time>
      </trkpt>
      <trkpt lat="59.5223018" lon="17.8497748">
        <ele>24.1703</ele>
        <time>2011-02-21T19:34:04Z</time>
      </trkpt>
      <trkpt lat="59.5222434" lon="17.8499374">
        <ele>24.1703</ele>
        <time>2011-02-21T19:34:07Z</time>
      </trkpt>
      <trkpt lat="59.522218" lon="17.8500049">
        <ele>30.8995</ele>
        <time>2011-02-21T19:34:52Z</time>
      </trkpt>
      <trkpt lat="59.5222177" lon="17.8500039">
        <ele>30.8995</ele>
        <time>2011-02-21T19:34:53Z</time>
      </trkpt>
      <trkpt lat="59.5222223" lon="17.8499873">
        <ele>30.4188</ele>
        <time>2011-02-21T19:34:54Z</time>
      </trkpt>
      <trkpt lat="59.522299" lon="17.8498023">
        <ele>29.9381</ele>
        <time>2011-02-21T19:34:58Z</time>
      </trkpt>
      <trkpt lat="59.522391" lon="17.8495672">
        <ele>29.4575</ele>
        <time>2011-02-21T19:35:02Z</time>
      </trkpt>
      <trkpt lat="59.5225114" lon="17.8493615">
        <ele>28.9769</ele>
        <time>2011-02-21T19:35:06Z</time>
      </trkpt>
      <trkpt lat="59.5226017" lon="17.8491707">
        <ele>28.9769</ele>
        <time>2011-02-21T19:35:09Z</time>
      </trkpt>
      <trkpt lat="59.5227388" lon="17.8488997">
        <ele>28.9769</ele>
        <time>2011-02-21T19:35:15Z</time>
      </trkpt>
      <trkpt lat="59.5228271" lon="17.8487253">
        <ele>28.4962</ele>
        <time>2011-02-21T19:35:19Z</time>
      </trkpt>
      <trkpt lat="59.5229508" lon="17.8486056">
        <ele>28.9769</ele>
        <time>2011-02-21T19:35:23Z</time>
      </trkpt>
      <trkpt lat="59.5230229" lon="17.8484844">
        <ele>29.9381</ele>
        <time>2011-02-21T19:35:27Z</time>
      </trkpt>
      <trkpt lat="59.5231437" lon="17.8483926">
        <ele>30.8995</ele>
        <time>2011-02-21T19:35:31Z</time>
      </trkpt>
      <trkpt lat="59.5232787" lon="17.8483555">
        <ele>32.3416</ele>
        <time>2011-02-21T19:35:36Z</time>
      </trkpt>
      <trkpt lat="59.523422" lon="17.8483733">
        <ele>32.3416</ele>
        <time>2011-02-21T19:35:41Z</time>
      </trkpt>
      <trkpt lat="59.5235426" lon="17.8483611">
        <ele>32.8223</ele>
        <time>2011-02-21T19:35:45Z</time>
      </trkpt>
      <trkpt lat="59.52364" lon="17.848353">
        <ele>33.7834</ele>
        <time>2011-02-21T19:35:48Z</time>
      </trkpt>
      <trkpt lat="59.5237434" lon="17.848333">
        <ele>33.7834</ele>
        <time>2011-02-21T19:35:52Z</time>
      </trkpt>
      <trkpt lat="59.5238608" lon="17.848224">
        <ele>34.7449</ele>
        <time>2011-02-21T19:35:57Z</time>
      </trkpt>
      <trkpt lat="59.5239877" lon="17.8480286">
        <ele>36.1868</ele>
        <time>2011-02-21T19:36:02Z</time>
      </trkpt>
      <trkpt lat="59.5240548" lon="17.8478649">
        <ele>36.1868</ele>
        <time>2011-02-21T19:36:06Z</time>
      </trkpt>
      <trkpt lat="59.5241103" lon="17.8476992">
        <ele>37.6287</ele>
        <time>2011-02-21T19:36:10Z</time>
      </trkpt>
      <trkpt lat="59.5241926" lon="17.8474734">
        <ele>38.5901</ele>
        <time>2011-02-21T19:36:15Z</time>
      </trkpt>
      <trkpt lat="59.5242762" lon="17.8473294">
        <ele>38.5901</ele>
        <time>2011-02-21T19:36:19Z</time>
      </trkpt>
      <trkpt lat="59.5243761" lon="17.8472136">
        <ele>39.5513</ele>
        <time>2011-02-21T19:36:24Z</time>
      </trkpt>
      <trkpt lat="59.5244985" lon="17.8470562">
        <ele>40.0321</ele>
        <time>2011-02-21T19:36:30Z</time>
      </trkpt>
      <trkpt lat="59.524536" lon="17.8470261">
        <ele>40.5128</ele>
        <time>2011-02-21T19:36:32Z</time>
      </trkpt>
      <trkpt lat="59.5246449" lon="17.8469858">
        <ele>41.9547</ele>
        <time>2011-02-21T19:36:37Z</time>
      </trkpt>
      <trkpt lat="59.5247549" lon="17.8469429">
        <ele>43.8773</ele>
        <time>2011-02-21T19:36:42Z</time>
      </trkpt>
      <trkpt lat="59.5248528" lon="17.8468938">
        <ele>43.3966</ele>
        <time>2011-02-21T19:36:46Z</time>
      </trkpt>
      <trkpt lat="59.5249402" lon="17.8468539">
        <ele>43.8773</ele>
        <time>2011-02-21T19:36:50Z</time>
      </trkpt>
      <trkpt lat="59.525061" lon="17.8467942">
        <ele>43.8773</ele>
        <time>2011-02-21T19:36:55Z</time>
      </trkpt>
      <trkpt lat="59.5251744" lon="17.846743">
        <ele>42.4354</ele>
        <time>2011-02-21T19:36:59Z</time>
      </trkpt>
      <trkpt lat="59.5252508" lon="17.8467658">
        <ele>40.9934</ele>
        <time>2011-02-21T19:37:02Z</time>
      </trkpt>
      <trkpt lat="59.5252758" lon="17.8467729">
        <ele>40.9934</ele>
        <time>2011-02-21T19:37:03Z</time>
      </trkpt>
      <trkpt lat="59.5254124" lon="17.8467683">
        <ele>40.0321</ele>
        <time>2011-02-21T19:37:06Z</time>
      </trkpt>
      <trkpt lat="59.5257186" lon="17.8466347">
        <ele>39.5513</ele>
        <time>2011-02-21T19:37:11Z</time>
      </trkpt>
      <trkpt lat="59.5259559" lon="17.8463471">
        <ele>37.1481</ele>
        <time>2011-02-21T19:37:15Z</time>
      </trkpt>
      <trkpt lat="59.5262911" lon="17.8460823">
        <ele>33.3029</ele>
        <time>2011-02-21T19:37:19Z</time>
      </trkpt>
      <trkpt lat="59.5264681" lon="17.8461116">
        <ele>31.3801</ele>
        <time>2011-02-21T19:37:21Z</time>
      </trkpt>
      <trkpt lat="59.5267186" lon="17.8462445">
        <ele>31.3801</ele>
        <time>2011-02-21T19:37:25Z</time>
      </trkpt>
      <trkpt lat="59.5268044" lon="17.8463896">
        <ele>29.9381</ele>
        <time>2011-02-21T19:37:29Z</time>
      </trkpt>
      <trkpt lat="59.5268506" lon="17.8466612">
        <ele>27.0543</ele>
        <time>2011-02-21T19:37:36Z</time>
      </trkpt>
      <trkpt lat="59.5268786" lon="17.8467735">
        <ele>26.0929</ele>
        <time>2011-02-21T19:37:39Z</time>
      </trkpt>
      <trkpt lat="59.5269453" lon="17.8469624">
        <ele>26.0929</ele>
        <time>2011-02-21T19:37:44Z</time>
      </trkpt>
      <trkpt lat="59.5269702" lon="17.8470339">
        <ele>26.0929</ele>
        <time>2011-02-21T19:37:46Z</time>
      </trkpt>
      <trkpt lat="59.5269963" lon="17.8471965">
        <ele>26.5736</ele>
        <time>2011-02-21T19:37:51Z</time>
      </trkpt>
      <trkpt lat="59.5270396" lon="17.8474159">
        <ele>28.9769</ele>
        <time>2011-02-21T19:37:56Z</time>
      </trkpt>
      <trkpt lat="59.5270726" lon="17.847581">
        <ele>28.4962</ele>
        <time>2011-02-21T19:38:00Z</time>
      </trkpt>
      <trkpt lat="59.5270898" lon="17.8476667">
        <ele>28.9769</ele>
        <time>2011-02-21T19:38:02Z</time>
      </trkpt>
      <trkpt lat="59.5271208" lon="17.8479043">
        <ele>28.0155</ele>
        <time>2011-02-21T19:38:08Z</time>
      </trkpt>
      <trkpt lat="59.5271462" lon="17.8480939">
        <ele>27.5349</ele>
        <time>2011-02-21T19:38:12Z</time>
      </trkpt>
      <trkpt lat="59.5271667" lon="17.8483217">
        <ele>27.5349</ele>
        <time>2011-02-21T19:38:18Z</time>
      </trkpt>
      <trkpt lat="59.5271846" lon="17.8484783">
        <ele>28.4962</ele>
        <time>2011-02-21T19:38:22Z</time>
      </trkpt>
      <trkpt lat="59.5272086" lon="17.8486843">
        <ele>29.9381</ele>
        <time>2011-02-21T19:38:27Z</time>
      </trkpt>
      <trkpt lat="59.5272306" lon="17.8488322">
        <ele>33.7834</ele>
        <time>2011-02-21T19:38:31Z</time>
      </trkpt>
      <trkpt lat="59.5272745" lon="17.8490577">
        <ele>38.1094</ele>
        <time>2011-02-21T19:38:38Z</time>
      </trkpt>
      <trkpt lat="59.5273044" lon="17.8491542">
        <ele>40.0321</ele>
        <time>2011-02-21T19:38:41Z</time>
      </trkpt>
      <trkpt lat="59.5273298" lon="17.8492077">
        <ele>42.916</ele>
        <time>2011-02-21T19:38:46Z</time>
      </trkpt>
      <trkpt lat="59.5273482" lon="17.8492925">
        <ele>44.358</ele>
        <time>2011-02-21T19:38:52Z</time>
      </trkpt>
      <trkpt lat="59.5273711" lon="17.8495314">
        <ele>43.8773</ele>
        <time>2011-02-21T19:38:58Z</time>
      </trkpt>
      <trkpt lat="59.5274065" lon="17.8497073">
        <ele>43.3966</ele>
        <time>2011-02-21T19:39:02Z</time>
      </trkpt>
      <trkpt lat="59.5274385" lon="17.849893">
        <ele>42.4354</ele>
        <time>2011-02-21T19:39:06Z</time>
      </trkpt>
      <trkpt lat="59.5274583" lon="17.8500572">
        <ele>42.4354</ele>
        <time>2011-02-21T19:39:10Z</time>
      </trkpt>
      <trkpt lat="59.5274707" lon="17.8503746">
        <ele>40.9934</ele>
        <time>2011-02-21T19:39:14Z</time>
      </trkpt>
      <trkpt lat="59.5275054" lon="17.8507986">
        <ele>39.0707</ele>
        <time>2011-02-21T19:39:18Z</time>
      </trkpt>
      <trkpt lat="59.5276816" lon="17.8512533">
        <ele>38.5901</ele>
        <time>2011-02-21T19:39:22Z</time>
      </trkpt>
      <trkpt lat="59.5279841" lon="17.8519345">
        <ele>35.7061</ele>
        <time>2011-02-21T19:39:29Z</time>
      </trkpt>
      <trkpt lat="59.5282" lon="17.8521852">
        <ele>32.3416</ele>
        <time>2011-02-21T19:39:34Z</time>
      </trkpt>
      <trkpt lat="59.5283045" lon="17.8522556">
        <ele>31.8607</ele>
        <time>2011-02-21T19:39:36Z</time>
      </trkpt>
      <trkpt lat="59.5284348" lon="17.8523893">
        <ele>30.8995</ele>
        <time>2011-02-21T19:39:39Z</time>
      </trkpt>
      <trkpt lat="59.5285765" lon="17.852467">
        <ele>31.8607</ele>
        <time>2011-02-21T19:39:42Z</time>
      </trkpt>
      <trkpt lat="59.5287999" lon="17.8524634">
        <ele>31.3801</ele>
        <time>2011-02-21T19:39:46Z</time>
      </trkpt>
      <trkpt lat="59.5288521" lon="17.8524479">
        <ele>30.8995</ele>
        <time>2011-02-21T19:39:47Z</time>
      </trkpt>
      <trkpt lat="59.5291497" lon="17.8526243">
        <ele>28.4962</ele>
        <time>2011-02-21T19:39:53Z</time>
      </trkpt>
      <trkpt lat="59.529236" lon="17.8528181">
        <ele>26.5736</ele>
        <time>2011-02-21T19:39:56Z</time>
      </trkpt>
      <trkpt lat="59.5292946" lon="17.8529926">
        <ele>24.651</ele>
        <time>2011-02-21T19:39:59Z</time>
      </trkpt>
      <trkpt lat="59.5293664" lon="17.8532687">
        <ele>23.209</ele>
        <time>2011-02-21T19:40:04Z</time>
      </trkpt>
      <trkpt lat="59.5294525" lon="17.8535087">
        <ele>24.1703</ele>
        <time>2011-02-21T19:40:09Z</time>
      </trkpt>
      <trkpt lat="59.5295086" lon="17.8536693">
        <ele>24.651</ele>
        <time>2011-02-21T19:40:13Z</time>
      </trkpt>
      <trkpt lat="59.5295831" lon="17.8539185">
        <ele>24.651</ele>
        <time>2011-02-21T19:40:17Z</time>
      </trkpt>
      <trkpt lat="59.529696" lon="17.854223">
        <ele>26.0929</ele>
        <time>2011-02-21T19:40:22Z</time>
      </trkpt>
      <trkpt lat="59.5297836" lon="17.8544354">
        <ele>26.0929</ele>
        <time>2011-02-21T19:40:27Z</time>
      </trkpt>
      <trkpt lat="59.5298748" lon="17.8546316">
        <ele>25.1317</ele>
        <time>2011-02-21T19:40:32Z</time>
      </trkpt>
      <trkpt lat="59.5299757" lon="17.8548591">
        <ele>27.5349</ele>
        <time>2011-02-21T19:40:37Z</time>
      </trkpt>
      <trkpt lat="59.5300778" lon="17.8550745">
        <ele>27.0543</ele>
        <time>2011-02-21T19:40:41Z</time>
      </trkpt>
      <trkpt lat="59.530155" lon="17.8552715">
        <ele>27.0543</ele>
        <time>2011-02-21T19:40:45Z</time>
      </trkpt>
      <trkpt lat="59.5302118" lon="17.8554192">
        <ele>28.9769</ele>
        <time>2011-02-21T19:40:48Z</time>
      </trkpt>
      <trkpt lat="59.5303043" lon="17.8555326">
        <ele>28.9769</ele>
        <time>2011-02-21T19:40:52Z</time>
      </trkpt>
      <trkpt lat="59.5304647" lon="17.8555648">
        <ele>31.8607</ele>
        <time>2011-02-21T19:40:58Z</time>
      </trkpt>
      <trkpt lat="59.5305461" lon="17.8555921">
        <ele>33.7834</ele>
        <time>2011-02-21T19:41:01Z</time>
      </trkpt>
      <trkpt lat="59.5306179" lon="17.8557943">
        <ele>33.7834</ele>
        <time>2011-02-21T19:41:05Z</time>
      </trkpt>
      <trkpt lat="59.5306543" lon="17.8561049">
        <ele>32.8223</ele>
        <time>2011-02-21T19:41:09Z</time>
      </trkpt>
      <trkpt lat="59.5306927" lon="17.8563829">
        <ele>32.8223</ele>
        <time>2011-02-21T19:41:13Z</time>
      </trkpt>
      <trkpt lat="59.5307415" lon="17.8565777">
        <ele>31.3801</ele>
        <time>2011-02-21T19:41:17Z</time>
      </trkpt>
      <trkpt lat="59.5307621" lon="17.856637">
        <ele>31.8607</ele>
        <time>2011-02-21T19:41:18Z</time>
      </trkpt>
      <trkpt lat="59.5308318" lon="17.8569333">
        <ele>30.8995</ele>
        <time>2011-02-21T19:41:23Z</time>
      </trkpt>
      <trkpt lat="59.5308434" lon="17.856998">
        <ele>30.8995</ele>
        <time>2011-02-21T19:41:24Z</time>
      </trkpt>
      <trkpt lat="59.5309446" lon="17.8573974">
        <ele>29.4575</ele>
        <time>2011-02-21T19:41:30Z</time>
      </trkpt>
      <trkpt lat="59.5309884" lon="17.8576909">
        <ele>28.9769</ele>
        <time>2011-02-21T19:41:34Z</time>
      </trkpt>
      <trkpt lat="59.5310034" lon="17.8579846">
        <ele>28.0155</ele>
        <time>2011-02-21T19:41:38Z</time>
      </trkpt>
      <trkpt lat="59.5310052" lon="17.8583971">
        <ele>28.0155</ele>
        <time>2011-02-21T19:41:43Z</time>
      </trkpt>
      <trkpt lat="59.5309692" lon="17.8586815">
        <ele>28.4962</ele>
        <time>2011-02-21T19:41:47Z</time>
      </trkpt>
      <trkpt lat="59.5310075" lon="17.8589104">
        <ele>29.4575</ele>
        <time>2011-02-21T19:41:51Z</time>
      </trkpt>
      <trkpt lat="59.5310682" lon="17.8591415">
        <ele>28.0155</ele>
        <time>2011-02-21T19:41:55Z</time>
      </trkpt>
      <trkpt lat="59.5311776" lon="17.8593564">
        <ele>27.0543</ele>
        <time>2011-02-21T19:42:00Z</time>
      </trkpt>
      <trkpt lat="59.5312931" lon="17.8596202">
        <ele>24.1703</ele>
        <time>2011-02-21T19:42:04Z</time>
      </trkpt>
      <trkpt lat="59.5314732" lon="17.8599826">
        <ele>20.8057</ele>
        <time>2011-02-21T19:42:09Z</time>
      </trkpt>
      <trkpt lat="59.531555" lon="17.8601594">
        <ele>18.8831</ele>
        <time>2011-02-21T19:42:11Z</time>
      </trkpt>
      <trkpt lat="59.5316666" lon="17.8604541">
        <ele>15.0377</ele>
        <time>2011-02-21T19:42:14Z</time>
      </trkpt>
      <trkpt lat="59.5317426" lon="17.8606178">
        <ele>14.0764</ele>
        <time>2011-02-21T19:42:16Z</time>
      </trkpt>
      <trkpt lat="59.5318208" lon="17.8611051">
        <ele>11.1925</ele>
        <time>2011-02-21T19:42:21Z</time>
      </trkpt>
      <trkpt lat="59.5318656" lon="17.8615983">
        <ele>9.75061</ele>
        <time>2011-02-21T19:42:26Z</time>
      </trkpt>
      <trkpt lat="59.5318967" lon="17.8617864">
        <ele>8.78918</ele>
        <time>2011-02-21T19:42:28Z</time>
      </trkpt>
      <trkpt lat="59.5320172" lon="17.8623224">
        <ele>9.75061</ele>
        <time>2011-02-21T19:42:33Z</time>
      </trkpt>
      <trkpt lat="59.53205" lon="17.8625412">
        <ele>9.2699</ele>
        <time>2011-02-21T19:42:35Z</time>
      </trkpt>
      <trkpt lat="59.5321363" lon="17.8630282">
        <ele>5.42456</ele>
        <time>2011-02-21T19:42:40Z</time>
      </trkpt>
      <trkpt lat="59.5321663" lon="17.8632002">
        <ele>4.46326</ele>
        <time>2011-02-21T19:42:42Z</time>
      </trkpt>
      <trkpt lat="59.5321809" lon="17.8633778">
        <ele>3.02124</ele>
        <time>2011-02-21T19:42:44Z</time>
      </trkpt>
      <trkpt lat="59.5322629" lon="17.8637071">
        <ele>6.38586</ele>
        <time>2011-02-21T19:42:48Z</time>
      </trkpt>
      <trkpt lat="59.5323364" lon="17.8640094">
        <ele>7.82788</ele>
        <time>2011-02-21T19:42:52Z</time>
      </trkpt>
      <trkpt lat="59.5323736" lon="17.8642269">
        <ele>7.34717</ele>
        <time>2011-02-21T19:42:55Z</time>
      </trkpt>
      <trkpt lat="59.5324027" lon="17.8643825">
        <ele>7.34717</ele>
        <time>2011-02-21T19:42:57Z</time>
      </trkpt>
      <trkpt lat="59.5324423" lon="17.8648812">
        <ele>5.90527</ele>
        <time>2011-02-21T19:43:03Z</time>
      </trkpt>
      <trkpt lat="59.5324545" lon="17.8650544">
        <ele>5.42456</ele>
        <time>2011-02-21T19:43:05Z</time>
      </trkpt>
      <trkpt lat="59.5324988" lon="17.8653746">
        <ele>5.90527</ele>
        <time>2011-02-21T19:43:09Z</time>
      </trkpt>
      <trkpt lat="59.5325275" lon="17.8655877">
        <ele>6.86646</ele>
        <time>2011-02-21T19:43:12Z</time>
      </trkpt>
      <trkpt lat="59.5325539" lon="17.8658509">
        <ele>7.82788</ele>
        <time>2011-02-21T19:43:16Z</time>
      </trkpt>
      <trkpt lat="59.5326689" lon="17.8663475">
        <ele>7.34717</ele>
        <time>2011-02-21T19:43:23Z</time>
      </trkpt>
      <trkpt lat="59.5327197" lon="17.866581">
        <ele>6.38586</ele>
        <time>2011-02-21T19:43:27Z</time>
      </trkpt>
      <trkpt lat="59.5327512" lon="17.8667792">
        <ele>5.90527</ele>
        <time>2011-02-21T19:43:31Z</time>
      </trkpt>
      <trkpt lat="59.5328181" lon="17.8670154">
        <ele>5.90527</ele>
        <time>2011-02-21T19:43:35Z</time>
      </trkpt>
      <trkpt lat="59.5329669" lon="17.8673339">
        <ele>14.557</ele>
        <time>2011-02-21T19:43:40Z</time>
      </trkpt>
      <trkpt lat="59.533047" lon="17.8675873">
        <ele>16.9604</ele>
        <time>2011-02-21T19:43:44Z</time>
      </trkpt>
      <trkpt lat="59.5331563" lon="17.8679259">
        <ele>19.3638</ele>
        <time>2011-02-21T19:43:49Z</time>
      </trkpt>
      <trkpt lat="59.5331839" lon="17.8680537">
        <ele>19.3638</ele>
        <time>2011-02-21T19:43:51Z</time>
      </trkpt>
      <trkpt lat="59.533246" lon="17.8684165">
        <ele>21.2864</ele>
        <time>2011-02-21T19:43:57Z</time>
      </trkpt>
      <trkpt lat="59.5333297" lon="17.8687004">
        <ele>21.767</ele>
        <time>2011-02-21T19:44:02Z</time>
      </trkpt>
      <trkpt lat="59.53341" lon="17.8689704">
        <ele>22.2476</ele>
        <time>2011-02-21T19:44:06Z</time>
      </trkpt>
      <trkpt lat="59.5335366" lon="17.8692474">
        <ele>23.6896</ele>
        <time>2011-02-21T19:44:11Z</time>
      </trkpt>
      <trkpt lat="59.5336542" lon="17.869523">
        <ele>22.7283</ele>
        <time>2011-02-21T19:44:16Z</time>
      </trkpt>
      <trkpt lat="59.53371" lon="17.8697712">
        <ele>21.767</ele>
        <time>2011-02-21T19:44:20Z</time>
      </trkpt>
      <trkpt lat="59.5338105" lon="17.8700066">
        <ele>19.8444</ele>
        <time>2011-02-21T19:44:24Z</time>
      </trkpt>
      <trkpt lat="59.5339292" lon="17.8701275">
        <ele>18.4023</ele>
        <time>2011-02-21T19:44:28Z</time>
      </trkpt>
      <trkpt lat="59.5340394" lon="17.8702273">
        <ele>17.9218</ele>
        <time>2011-02-21T19:44:32Z</time>
      </trkpt>
      <trkpt lat="59.5341801" lon="17.8703001">
        <ele>17.4412</ele>
        <time>2011-02-21T19:44:37Z</time>
      </trkpt>
      <trkpt lat="59.5343434" lon="17.8702837">
        <ele>17.4412</ele>
        <time>2011-02-21T19:44:43Z</time>
      </trkpt>
      <trkpt lat="59.5344166" lon="17.8702855">
        <ele>18.4023</ele>
        <time>2011-02-21T19:44:47Z</time>
      </trkpt>
      <trkpt lat="59.5345271" lon="17.8703223">
        <ele>18.4023</ele>
        <time>2011-02-21T19:44:52Z</time>
      </trkpt>
      <trkpt lat="59.5345478" lon="17.8703369">
        <ele>17.9218</ele>
        <time>2011-02-21T19:44:53Z</time>
      </trkpt>
      <trkpt lat="59.5346819" lon="17.87056">
        <ele>18.8831</ele>
        <time>2011-02-21T19:44:58Z</time>
      </trkpt>
      <trkpt lat="59.5348563" lon="17.8708896">
        <ele>21.767</ele>
        <time>2011-02-21T19:45:04Z</time>
      </trkpt>
      <trkpt lat="59.5349412" lon="17.8710997">
        <ele>19.8444</ele>
        <time>2011-02-21T19:45:08Z</time>
      </trkpt>
      <trkpt lat="59.5350357" lon="17.8712764">
        <ele>17.9218</ele>
        <time>2011-02-21T19:45:12Z</time>
      </trkpt>
      <trkpt lat="59.5351143" lon="17.871413">
        <ele>18.4023</ele>
        <time>2011-02-21T19:45:15Z</time>
      </trkpt>
      <trkpt lat="59.5351651" lon="17.8715059">
        <ele>16.9604</ele>
        <time>2011-02-21T19:45:17Z</time>
      </trkpt>
      <trkpt lat="59.535302" lon="17.8716919">
        <ele>19.3638</ele>
        <time>2011-02-21T19:45:21Z</time>
      </trkpt>
      <trkpt lat="59.5353948" lon="17.8719058">
        <ele>22.2476</ele>
        <time>2011-02-21T19:45:25Z</time>
      </trkpt>
      <trkpt lat="59.5354821" lon="17.8720815">
        <ele>25.1317</ele>
        <time>2011-02-21T19:45:29Z</time>
      </trkpt>
      <trkpt lat="59.5356199" lon="17.8722838">
        <ele>28.4962</ele>
        <time>2011-02-21T19:45:34Z</time>
      </trkpt>
      <trkpt lat="59.5357462" lon="17.8725213">
        <ele>28.0155</ele>
        <time>2011-02-21T19:45:38Z</time>
      </trkpt>
      <trkpt lat="59.5358753" lon="17.8728019">
        <ele>26.5736</ele>
        <time>2011-02-21T19:45:42Z</time>
      </trkpt>
      <trkpt lat="59.5360183" lon="17.872978">
        <ele>26.5736</ele>
        <time>2011-02-21T19:45:46Z</time>
      </trkpt>
      <trkpt lat="59.5361713" lon="17.8731458">
        <ele>27.0543</ele>
        <time>2011-02-21T19:45:51Z</time>
      </trkpt>
      <trkpt lat="59.5363183" lon="17.873336">
        <ele>27.0543</ele>
        <time>2011-02-21T19:45:57Z</time>
      </trkpt>
      <trkpt lat="59.5364095" lon="17.8735566">
        <ele>23.209</ele>
        <time>2011-02-21T19:46:01Z</time>
      </trkpt>
      <trkpt lat="59.536465" lon="17.8739768">
        <ele>18.4023</ele>
        <time>2011-02-21T19:46:06Z</time>
      </trkpt>
      <trkpt lat="59.5364679" lon="17.8742483">
        <ele>15.999</ele>
        <time>2011-02-21T19:46:08Z</time>
      </trkpt>
      <trkpt lat="59.5363766" lon="17.874961">
        <ele>14.557</ele>
        <time>2011-02-21T19:46:13Z</time>
      </trkpt>
      <trkpt lat="59.5363239" lon="17.8752059">
        <ele>14.0764</ele>
        <time>2011-02-21T19:46:15Z</time>
      </trkpt>
      <trkpt lat="59.5362349" lon="17.8756185">
        <ele>14.0764</ele>
        <time>2011-02-21T19:46:19Z</time>
      </trkpt>
      <trkpt lat="59.5361447" lon="17.8760737">
        <ele>13.5958</ele>
        <time>2011-02-21T19:46:24Z</time>
      </trkpt>
      <trkpt lat="59.5361166" lon="17.8762082">
        <ele>13.5958</ele>
        <time>2011-02-21T19:46:26Z</time>
      </trkpt>
      <trkpt lat="59.5360296" lon="17.8763742">
        <ele>14.557</ele>
        <time>2011-02-21T19:46:31Z</time>
      </trkpt>
      <trkpt lat="59.535956" lon="17.8763654">
        <ele>15.0377</ele>
        <time>2011-02-21T19:46:35Z</time>
      </trkpt>
      <trkpt lat="59.5358016" lon="17.8763655">
        <ele>16.9604</ele>
        <time>2011-02-21T19:46:42Z</time>
      </trkpt>
      <trkpt lat="59.5357113" lon="17.8763798">
        <ele>17.9218</ele>
        <time>2011-02-21T19:46:46Z</time>
      </trkpt>
      <trkpt lat="59.5355382" lon="17.8763489">
        <ele>17.4412</ele>
        <time>2011-02-21T19:46:52Z</time>
      </trkpt>
      <trkpt lat="59.5354041" lon="17.8763115">
        <ele>17.9218</ele>
        <time>2011-02-21T19:46:57Z</time>
      </trkpt>
      <trkpt lat="59.5353195" lon="17.8762705">
        <ele>19.3638</ele>
        <time>2011-02-21T19:47:01Z</time>
      </trkpt>
      <trkpt lat="59.5351782" lon="17.8762725">
        <ele>19.3638</ele>
        <time>2011-02-21T19:47:07Z</time>
      </trkpt>
      <trkpt lat="59.5350134" lon="17.8763701">
        <ele>19.3638</ele>
        <time>2011-02-21T19:47:12Z</time>
      </trkpt>
      <trkpt lat="59.5348549" lon="17.8764862">
        <ele>20.8057</ele>
        <time>2011-02-21T19:47:17Z</time>
      </trkpt>
      <trkpt lat="59.5347617" lon="17.876553">
        <ele>22.2476</ele>
        <time>2011-02-21T19:47:21Z</time>
      </trkpt>
      <trkpt lat="59.5346162" lon="17.8766354">
        <ele>22.7283</ele>
        <time>2011-02-21T19:47:26Z</time>
      </trkpt>
      <trkpt lat="59.5344474" lon="17.8767457">
        <ele>22.7283</ele>
        <time>2011-02-21T19:47:30Z</time>
      </trkpt>
      <trkpt lat="59.5342624" lon="17.8768404">
        <ele>21.767</ele>
        <time>2011-02-21T19:47:34Z</time>
      </trkpt>
      <trkpt lat="59.5340306" lon="17.8768345">
        <ele>23.209</ele>
        <time>2011-02-21T19:47:40Z</time>
      </trkpt>
      <trkpt lat="59.5339689" lon="17.8768578">
        <ele>23.209</ele>
        <time>2011-02-21T19:47:42Z</time>
      </trkpt>
      <trkpt lat="59.5337924" lon="17.8770139">
        <ele>24.1703</ele>
        <time>2011-02-21T19:47:49Z</time>
      </trkpt>
      <trkpt lat="59.533706" lon="17.8771394">
        <ele>25.6123</ele>
        <time>2011-02-21T19:47:53Z</time>
      </trkpt>
      <trkpt lat="59.5335939" lon="17.8773221">
        <ele>26.0929</ele>
        <time>2011-02-21T19:47:57Z</time>
      </trkpt>
      <trkpt lat="59.5334552" lon="17.8775528">
        <ele>25.1317</ele>
        <time>2011-02-21T19:48:02Z</time>
      </trkpt>
      <trkpt lat="59.5333568" lon="17.8776598">
        <ele>26.0929</ele>
        <time>2011-02-21T19:48:06Z</time>
      </trkpt>
      <trkpt lat="59.5332857" lon="17.8778375">
        <ele>27.5349</ele>
        <time>2011-02-21T19:48:11Z</time>
      </trkpt>
      <trkpt lat="59.5332292" lon="17.878077">
        <ele>29.9381</ele>
        <time>2011-02-21T19:48:16Z</time>
      </trkpt>
      <trkpt lat="59.533176" lon="17.878327">
        <ele>31.3801</ele>
        <time>2011-02-21T19:48:20Z</time>
      </trkpt>
      <trkpt lat="59.5330533" lon="17.8786451">
        <ele>33.7834</ele>
        <time>2011-02-21T19:48:25Z</time>
      </trkpt>
      <trkpt lat="59.5329707" lon="17.8789044">
        <ele>32.3416</ele>
        <time>2011-02-21T19:48:30Z</time>
      </trkpt>
      <trkpt lat="59.5329305" lon="17.8792523">
        <ele>30.4188</ele>
        <time>2011-02-21T19:48:35Z</time>
      </trkpt>
      <trkpt lat="59.5328959" lon="17.8794533">
        <ele>29.9381</ele>
        <time>2011-02-21T19:48:39Z</time>
      </trkpt>
      <trkpt lat="59.5328667" lon="17.8797129">
        <ele>28.9769</ele>
        <time>2011-02-21T19:48:44Z</time>
      </trkpt>
      <trkpt lat="59.5327228" lon="17.8801323">
        <ele>30.4188</ele>
        <time>2011-02-21T19:48:51Z</time>
      </trkpt>
      <trkpt lat="59.5326182" lon="17.880381">
        <ele>31.3801</ele>
        <time>2011-02-21T19:48:55Z</time>
      </trkpt>
      <trkpt lat="59.5325255" lon="17.8805779">
        <ele>31.8607</ele>
        <time>2011-02-21T19:48:59Z</time>
      </trkpt>
      <trkpt lat="59.5324208" lon="17.8807674">
        <ele>32.8223</ele>
        <time>2011-02-21T19:49:04Z</time>
      </trkpt>
      <trkpt lat="59.5323005" lon="17.8810781">
        <ele>30.8995</ele>
        <time>2011-02-21T19:49:09Z</time>
      </trkpt>
      <trkpt lat="59.5321918" lon="17.881302">
        <ele>29.4575</ele>
        <time>2011-02-21T19:49:13Z</time>
      </trkpt>
      <trkpt lat="59.5321193" lon="17.8815402">
        <ele>27.5349</ele>
        <time>2011-02-21T19:49:17Z</time>
      </trkpt>
      <trkpt lat="59.5320499" lon="17.8817115">
        <ele>27.0543</ele>
        <time>2011-02-21T19:49:20Z</time>
      </trkpt>
      <trkpt lat="59.5319302" lon="17.881988">
        <ele>25.6123</ele>
        <time>2011-02-21T19:49:24Z</time>
      </trkpt>
      <trkpt lat="59.5318185" lon="17.8822928">
        <ele>25.6123</ele>
        <time>2011-02-21T19:49:28Z</time>
      </trkpt>
      <trkpt lat="59.5317825" lon="17.8824494">
        <ele>25.1317</ele>
        <time>2011-02-21T19:49:30Z</time>
      </trkpt>
      <trkpt lat="59.5317589" lon="17.882608">
        <ele>24.651</ele>
        <time>2011-02-21T19:49:32Z</time>
      </trkpt>
      <trkpt lat="59.5316758" lon="17.8829691">
        <ele>23.6896</ele>
        <time>2011-02-21T19:49:37Z</time>
      </trkpt>
      <trkpt lat="59.5315916" lon="17.8831585">
        <ele>23.209</ele>
        <time>2011-02-21T19:49:40Z</time>
      </trkpt>
      <trkpt lat="59.5314945" lon="17.8833">
        <ele>22.7283</ele>
        <time>2011-02-21T19:49:43Z</time>
      </trkpt>
      <trkpt lat="59.5313273" lon="17.8836121">
        <ele>23.209</ele>
        <time>2011-02-21T19:49:50Z</time>
      </trkpt>
      <trkpt lat="59.531247" lon="17.8837019">
        <ele>23.6896</ele>
        <time>2011-02-21T19:49:54Z</time>
      </trkpt>
      <trkpt lat="59.5311407" lon="17.8837978">
        <ele>26.5736</ele>
        <time>2011-02-21T19:49:59Z</time>
      </trkpt>
      <trkpt lat="59.5310204" lon="17.8838382">
        <ele>28.4962</ele>
        <time>2011-02-21T19:50:04Z</time>
      </trkpt>
      <trkpt lat="59.5309569" lon="17.8837978">
        <ele>30.4188</ele>
        <time>2011-02-21T19:50:09Z</time>
      </trkpt>
      <trkpt lat="59.5309041" lon="17.8836764">
        <ele>32.3416</ele>
        <time>2011-02-21T19:50:14Z</time>
      </trkpt>
      <trkpt lat="59.5308356" lon="17.8835189">
        <ele>32.3416</ele>
        <time>2011-02-21T19:50:18Z</time>
      </trkpt>
      <trkpt lat="59.5307629" lon="17.8833138">
        <ele>31.3801</ele>
        <time>2011-02-21T19:50:22Z</time>
      </trkpt>
      <trkpt lat="59.5306723" lon="17.8831301">
        <ele>30.4188</ele>
        <time>2011-02-21T19:50:27Z</time>
      </trkpt>
      <trkpt lat="59.5306145" lon="17.8829967">
        <ele>30.8995</ele>
        <time>2011-02-21T19:50:31Z</time>
      </trkpt>
      <trkpt lat="59.5305335" lon="17.8828587">
        <ele>32.3416</ele>
        <time>2011-02-21T19:50:36Z</time>
      </trkpt>
      <trkpt lat="59.5304783" lon="17.8828244">
        <ele>33.7834</ele>
        <time>2011-02-21T19:50:40Z</time>
      </trkpt>
      <trkpt lat="59.5304286" lon="17.8827891">
        <ele>34.7449</ele>
        <time>2011-02-21T19:50:43Z</time>
      </trkpt>
      <trkpt lat="59.53031" lon="17.8827206">
        <ele>36.6675</ele>
        <time>2011-02-21T19:50:50Z</time>
      </trkpt>
      <trkpt lat="59.5302833" lon="17.8826991">
        <ele>37.6287</ele>
        <time>2011-02-21T19:50:52Z</time>
      </trkpt>
      <trkpt lat="59.5301881" lon="17.8826808">
        <ele>39.0707</ele>
        <time>2011-02-21T19:50:57Z</time>
      </trkpt>
      <trkpt lat="59.5300945" lon="17.8826566">
        <ele>39.0707</ele>
        <time>2011-02-21T19:51:02Z</time>
      </trkpt>
      <trkpt lat="59.5300711" lon="17.8826458">
        <ele>39.0707</ele>
        <time>2011-02-21T19:51:03Z</time>
      </trkpt>
      <trkpt lat="59.5299954" lon="17.8825896">
        <ele>39.0707</ele>
        <time>2011-02-21T19:51:07Z</time>
      </trkpt>
      <trkpt lat="59.5299586" lon="17.8825452">
        <ele>39.0707</ele>
        <time>2011-02-21T19:51:09Z</time>
      </trkpt>
      <trkpt lat="59.5298727" lon="17.8823932">
        <ele>38.1094</ele>
        <time>2011-02-21T19:51:13Z</time>
      </trkpt>
      <trkpt lat="59.5297442" lon="17.8821961">
        <ele>36.1868</ele>
        <time>2011-02-21T19:51:19Z</time>
      </trkpt>
      <trkpt lat="59.5296929" lon="17.882153">
        <ele>35.7061</ele>
        <time>2011-02-21T19:51:21Z</time>
      </trkpt>
      <trkpt lat="59.5295835" lon="17.8820982">
        <ele>36.1868</ele>
        <time>2011-02-21T19:51:25Z</time>
      </trkpt>
      <trkpt lat="59.5294472" lon="17.8819419">
        <ele>35.7061</ele>
        <time>2011-02-21T19:51:30Z</time>
      </trkpt>
      <trkpt lat="59.5293187" lon="17.8818178">
        <ele>33.7834</ele>
        <time>2011-02-21T19:51:35Z</time>
      </trkpt>
      <trkpt lat="59.5291856" lon="17.8817673">
        <ele>34.2642</ele>
        <time>2011-02-21T19:51:39Z</time>
      </trkpt>
      <trkpt lat="59.5290535" lon="17.8816572">
        <ele>32.8223</ele>
        <time>2011-02-21T19:51:43Z</time>
      </trkpt>
      <trkpt lat="59.5290206" lon="17.881633">
        <ele>32.8223</ele>
        <time>2011-02-21T19:51:44Z</time>
      </trkpt>
      <trkpt lat="59.5288277" lon="17.8815199">
        <ele>32.8223</ele>
        <time>2011-02-21T19:51:51Z</time>
      </trkpt>
      <trkpt lat="59.5286905" lon="17.8814106">
        <ele>32.8223</ele>
        <time>2011-02-21T19:51:56Z</time>
      </trkpt>
      <trkpt lat="59.5285141" lon="17.8813537">
        <ele>34.2642</ele>
        <time>2011-02-21T19:52:00Z</time>
      </trkpt>
      <trkpt lat="59.528315" lon="17.8813802">
        <ele>34.2642</ele>
        <time>2011-02-21T19:52:04Z</time>
      </trkpt>
      <trkpt lat="59.5280812" lon="17.8813756">
        <ele>35.2255</ele>
        <time>2011-02-21T19:52:09Z</time>
      </trkpt>
      <trkpt lat="59.5280145" lon="17.8813652">
        <ele>36.6675</ele>
        <time>2011-02-21T19:52:11Z</time>
      </trkpt>
      <trkpt lat="59.5278194" lon="17.8813588">
        <ele>37.1481</ele>
        <time>2011-02-21T19:52:18Z</time>
      </trkpt>
      <trkpt lat="59.5276986" lon="17.881459">
        <ele>39.5513</ele>
        <time>2011-02-21T19:52:24Z</time>
      </trkpt>
      <trkpt lat="59.5276474" lon="17.8815511">
        <ele>40.5128</ele>
        <time>2011-02-21T19:52:27Z</time>
      </trkpt>
      <trkpt lat="59.5274713" lon="17.8817893">
        <ele>40.5128</ele>
        <time>2011-02-21T19:52:33Z</time>
      </trkpt>
      <trkpt lat="59.5273039" lon="17.8819911">
        <ele>41.474</ele>
        <time>2011-02-21T19:52:38Z</time>
      </trkpt>
      <trkpt lat="59.5271718" lon="17.8820332">
        <ele>42.4354</ele>
        <time>2011-02-21T19:52:42Z</time>
      </trkpt>
      <trkpt lat="59.5270504" lon="17.8819277">
        <ele>41.474</ele>
        <time>2011-02-21T19:52:46Z</time>
      </trkpt>
      <trkpt lat="59.5269577" lon="17.881653">
        <ele>39.0707</ele>
        <time>2011-02-21T19:52:50Z</time>
      </trkpt>
      <trkpt lat="59.5269153" lon="17.8814411">
        <ele>36.6675</ele>
        <time>2011-02-21T19:52:52Z</time>
      </trkpt>
      <trkpt lat="59.5267245" lon="17.8810309">
        <ele>33.7834</ele>
        <time>2011-02-21T19:52:56Z</time>
      </trkpt>
      <trkpt lat="59.5265865" lon="17.8808924">
        <ele>32.8223</ele>
        <time>2011-02-21T19:52:58Z</time>
      </trkpt>
      <trkpt lat="59.5264182" lon="17.8808025">
        <ele>33.7834</ele>
        <time>2011-02-21T19:53:03Z</time>
      </trkpt>
      <trkpt lat="59.526226" lon="17.8807879">
        <ele>33.7834</ele>
        <time>2011-02-21T19:53:10Z</time>
      </trkpt>
      <trkpt lat="59.5260892" lon="17.8808195">
        <ele>32.8223</ele>
        <time>2011-02-21T19:53:14Z</time>
      </trkpt>
      <trkpt lat="59.525928" lon="17.8808025">
        <ele>32.3416</ele>
        <time>2011-02-21T19:53:18Z</time>
      </trkpt>
      <trkpt lat="59.5257964" lon="17.8807299">
        <ele>32.3416</ele>
        <time>2011-02-21T19:53:21Z</time>
      </trkpt>
      <trkpt lat="59.5256139" lon="17.8806348">
        <ele>33.7834</ele>
        <time>2011-02-21T19:53:26Z</time>
      </trkpt>
      <trkpt lat="59.525484" lon="17.8805771">
        <ele>34.2642</ele>
        <time>2011-02-21T19:53:30Z</time>
      </trkpt>
      <trkpt lat="59.5253452" lon="17.8805401">
        <ele>35.7061</ele>
        <time>2011-02-21T19:53:35Z</time>
      </trkpt>
      <trkpt lat="59.5252064" lon="17.8804981">
        <ele>35.7061</ele>
        <time>2011-02-21T19:53:40Z</time>
      </trkpt>
      <trkpt lat="59.5252024" lon="17.8804183">
        <ele>37.6287</ele>
        <time>2011-02-21T19:53:44Z</time>
      </trkpt>
      <trkpt lat="59.5252857" lon="17.8804218">
        <ele>36.6675</ele>
        <time>2011-02-21T19:53:48Z</time>
      </trkpt>
      <trkpt lat="59.5253122" lon="17.8804058">
        <ele>36.6675</ele>
        <time>2011-02-21T19:53:49Z</time>
      </trkpt>
      <trkpt lat="59.5254043" lon="17.8802769">
        <ele>37.6287</ele>
        <time>2011-02-21T19:53:54Z</time>
      </trkpt>
      <trkpt lat="59.5254806" lon="17.8800774">
        <ele>40.5128</ele>
        <time>2011-02-21T19:53:59Z</time>
      </trkpt>
      <trkpt lat="59.5255368" lon="17.8799249">
        <ele>41.474</ele>
        <time>2011-02-21T19:54:03Z</time>
      </trkpt>
      <trkpt lat="59.5255854" lon="17.8797355">
        <ele>42.4354</ele>
        <time>2011-02-21T19:54:07Z</time>
      </trkpt>
      <trkpt lat="59.5255956" lon="17.8796739">
        <ele>43.3966</ele>
        <time>2011-02-21T19:54:08Z</time>
      </trkpt>
      <trkpt lat="59.5256026" lon="17.8793518">
        <ele>44.358</ele>
        <time>2011-02-21T19:54:13Z</time>
      </trkpt>
      <trkpt lat="59.5255867" lon="17.8792137">
        <ele>44.8386</ele>
        <time>2011-02-21T19:54:15Z</time>
      </trkpt>
      <trkpt lat="59.5254549" lon="17.8788865">
        <ele>45.3192</ele>
        <time>2011-02-21T19:54:21Z</time>
      </trkpt>
      <trkpt lat="59.5253929" lon="17.8788255">
        <ele>45.3192</ele>
        <time>2011-02-21T19:54:23Z</time>
      </trkpt>
      <trkpt lat="59.525285" lon="17.8786128">
        <ele>46.7612</ele>
        <time>2011-02-21T19:54:28Z</time>
      </trkpt>
      <trkpt lat="59.5252179" lon="17.8785002">
        <ele>45.7999</ele>
        <time>2011-02-21T19:54:30Z</time>
      </trkpt>
      <trkpt lat="59.5250894" lon="17.8780129">
        <ele>41.9547</ele>
        <time>2011-02-21T19:54:35Z</time>
      </trkpt>
      <trkpt lat="59.5248778" lon="17.8775848">
        <ele>39.0707</ele>
        <time>2011-02-21T19:54:40Z</time>
      </trkpt>
      <trkpt lat="59.5247572" lon="17.8775115">
        <ele>38.1094</ele>
        <time>2011-02-21T19:54:43Z</time>
      </trkpt>
      <trkpt lat="59.5246868" lon="17.8773237">
        <ele>38.1094</ele>
        <time>2011-02-21T19:54:47Z</time>
      </trkpt>
      <trkpt lat="59.5246465" lon="17.8769111">
        <ele>36.6675</ele>
        <time>2011-02-21T19:54:51Z</time>
      </trkpt>
      <trkpt lat="59.5246346" lon="17.8767964">
        <ele>36.6675</ele>
        <time>2011-02-21T19:54:52Z</time>
      </trkpt>
      <trkpt lat="59.5245859" lon="17.8763762">
        <ele>35.2255</ele>
        <time>2011-02-21T19:54:56Z</time>
      </trkpt>
      <trkpt lat="59.524547" lon="17.8759111">
        <ele>32.3416</ele>
        <time>2011-02-21T19:55:01Z</time>
      </trkpt>
      <trkpt lat="59.5245419" lon="17.8756935">
        <ele>30.4188</ele>
        <time>2011-02-21T19:55:03Z</time>
      </trkpt>
      <trkpt lat="59.5244356" lon="17.8752841">
        <ele>26.5736</ele>
        <time>2011-02-21T19:55:07Z</time>
      </trkpt>
      <trkpt lat="59.5243949" lon="17.8751847">
        <ele>26.5736</ele>
        <time>2011-02-21T19:55:08Z</time>
      </trkpt>
      <trkpt lat="59.5242887" lon="17.8748941">
        <ele>24.651</ele>
        <time>2011-02-21T19:55:11Z</time>
      </trkpt>
      <trkpt lat="59.5240799" lon="17.8746114">
        <ele>22.7283</ele>
        <time>2011-02-21T19:55:16Z</time>
      </trkpt>
      <trkpt lat="59.5238907" lon="17.874414">
        <ele>22.2476</ele>
        <time>2011-02-21T19:55:21Z</time>
      </trkpt>
      <trkpt lat="59.5237027" lon="17.8739994">
        <ele>22.2476</ele>
        <time>2011-02-21T19:55:27Z</time>
      </trkpt>
      <trkpt lat="59.5236015" lon="17.8737135">
        <ele>21.767</ele>
        <time>2011-02-21T19:55:31Z</time>
      </trkpt>
      <trkpt lat="59.5235732" lon="17.8736738">
        <ele>21.767</ele>
        <time>2011-02-21T19:55:32Z</time>
      </trkpt>
      <trkpt lat="59.5235101" lon="17.8736097">
        <ele>21.2864</ele>
        <time>2011-02-21T19:55:34Z</time>
      </trkpt>
      <trkpt lat="59.5234013" lon="17.8733702">
        <ele>22.2476</ele>
        <time>2011-02-21T19:55:39Z</time>
      </trkpt>
      <trkpt lat="59.5232438" lon="17.8731416">
        <ele>22.7283</ele>
        <time>2011-02-21T19:55:44Z</time>
      </trkpt>
      <trkpt lat="59.5231221" lon="17.8729784">
        <ele>23.209</ele>
        <time>2011-02-21T19:55:48Z</time>
      </trkpt>
      <trkpt lat="59.5230387" lon="17.8728724">
        <ele>22.7283</ele>
        <time>2011-02-21T19:55:50Z</time>
      </trkpt>
      <trkpt lat="59.5229584" lon="17.8727911">
        <ele>22.7283</ele>
        <time>2011-02-21T19:55:52Z</time>
      </trkpt>
      <trkpt lat="59.5227765" lon="17.8726515">
        <ele>24.1703</ele>
        <time>2011-02-21T19:55:57Z</time>
      </trkpt>
      <trkpt lat="59.5225978" lon="17.8725766">
        <ele>25.1317</ele>
        <time>2011-02-21T19:56:02Z</time>
      </trkpt>
      <trkpt lat="59.5225133" lon="17.8725352">
        <ele>25.1317</ele>
        <time>2011-02-21T19:56:04Z</time>
      </trkpt>
      <trkpt lat="59.5223235" lon="17.8724347">
        <ele>26.0929</ele>
        <time>2011-02-21T19:56:09Z</time>
      </trkpt>
      <trkpt lat="59.5222129" lon="17.8724502">
        <ele>27.5349</ele>
        <time>2011-02-21T19:56:13Z</time>
      </trkpt>
      <trkpt lat="59.5220731" lon="17.8725382">
        <ele>29.4575</ele>
        <time>2011-02-21T19:56:18Z</time>
      </trkpt>
      <trkpt lat="59.5219699" lon="17.8725957">
        <ele>31.3801</ele>
        <time>2011-02-21T19:56:22Z</time>
      </trkpt>
      <trkpt lat="59.5218385" lon="17.8726277">
        <ele>34.7449</ele>
        <time>2011-02-21T19:56:27Z</time>
      </trkpt>
      <trkpt lat="59.5216903" lon="17.8726984">
        <ele>36.1868</ele>
        <time>2011-02-21T19:56:32Z</time>
      </trkpt>
      <trkpt lat="59.5214845" lon="17.8727631">
        <ele>34.7449</ele>
        <time>2011-02-21T19:56:38Z</time>
      </trkpt>
      <trkpt lat="59.5212969" lon="17.8727325">
        <ele>33.3029</ele>
        <time>2011-02-21T19:56:42Z</time>
      </trkpt>
      <trkpt lat="59.5211997" lon="17.8726714">
        <ele>32.8223</ele>
        <time>2011-02-21T19:56:45Z</time>
      </trkpt>
      <trkpt lat="59.5210763" lon="17.8725295">
        <ele>32.8223</ele>
        <time>2011-02-21T19:56:50Z</time>
      </trkpt>
      <trkpt lat="59.5209707" lon="17.872491">
        <ele>32.3416</ele>
        <time>2011-02-21T19:56:53Z</time>
      </trkpt>
      <trkpt lat="59.5209152" lon="17.8724912">
        <ele>31.8607</ele>
        <time>2011-02-21T19:56:55Z</time>
      </trkpt>
      <trkpt lat="59.5206628" lon="17.8725026">
        <ele>31.3801</ele>
        <time>2011-02-21T19:57:01Z</time>
      </trkpt>
      <trkpt lat="59.5205106" lon="17.8725902">
        <ele>31.8607</ele>
        <time>2011-02-21T19:57:05Z</time>
      </trkpt>
      <trkpt lat="59.520472" lon="17.8726169">
        <ele>31.8607</ele>
        <time>2011-02-21T19:57:06Z</time>
      </trkpt>
      <trkpt lat="59.5203017" lon="17.8727769">
        <ele>32.8223</ele>
        <time>2011-02-21T19:57:11Z</time>
      </trkpt>
      <trkpt lat="59.5201879" lon="17.8729422">
        <ele>34.2642</ele>
        <time>2011-02-21T19:57:15Z</time>
      </trkpt>
      <trkpt lat="59.5201199" lon="17.873038">
        <ele>34.7449</ele>
        <time>2011-02-21T19:57:18Z</time>
      </trkpt>
      <trkpt lat="59.5199636" lon="17.8732136">
        <ele>34.2642</ele>
        <time>2011-02-21T19:57:23Z</time>
      </trkpt>
      <trkpt lat="59.5197197" lon="17.8735286">
        <ele>33.3029</ele>
        <time>2011-02-21T19:57:29Z</time>
      </trkpt>
      <trkpt lat="59.5196592" lon="17.8736143">
        <ele>32.3416</ele>
        <time>2011-02-21T19:57:31Z</time>
      </trkpt>
      <trkpt lat="59.5195621" lon="17.8738039">
        <ele>33.3029</ele>
        <time>2011-02-21T19:57:36Z</time>
      </trkpt>
      <trkpt lat="59.5195292" lon="17.8738934">
        <ele>33.3029</ele>
        <time>2011-02-21T19:57:38Z</time>
      </trkpt>
      <trkpt lat="59.5194213" lon="17.8741363">
        <ele>33.3029</ele>
        <time>2011-02-21T19:57:44Z</time>
      </trkpt>
      <trkpt lat="59.5193358" lon="17.8743626">
        <ele>33.7834</ele>
        <time>2011-02-21T19:57:49Z</time>
      </trkpt>
      <trkpt lat="59.5192856" lon="17.874534">
        <ele>34.7449</ele>
        <time>2011-02-21T19:57:53Z</time>
      </trkpt>
      <trkpt lat="59.5192663" lon="17.874726">
        <ele>34.7449</ele>
        <time>2011-02-21T19:57:57Z</time>
      </trkpt>
      <trkpt lat="59.5192219" lon="17.8748942">
        <ele>36.1868</ele>
        <time>2011-02-21T19:58:02Z</time>
      </trkpt>
      <trkpt lat="59.5191774" lon="17.8749777">
        <ele>35.7061</ele>
        <time>2011-02-21T19:58:04Z</time>
      </trkpt>
      <trkpt lat="59.5189962" lon="17.8750818">
        <ele>33.3029</ele>
        <time>2011-02-21T19:58:08Z</time>
      </trkpt>
      <trkpt lat="59.5188536" lon="17.8752644">
        <ele>31.8607</ele>
        <time>2011-02-21T19:58:11Z</time>
      </trkpt>
      <trkpt lat="59.5187848" lon="17.8753946">
        <ele>31.8607</ele>
        <time>2011-02-21T19:58:13Z</time>
      </trkpt>
      <trkpt lat="59.5186909" lon="17.8755717">
        <ele>30.8995</ele>
        <time>2011-02-21T19:58:16Z</time>
      </trkpt>
      <trkpt lat="59.5186314" lon="17.8756798">
        <ele>29.9381</ele>
        <time>2011-02-21T19:58:18Z</time>
      </trkpt>
      <trkpt lat="59.5185278" lon="17.8758505">
        <ele>29.4575</ele>
        <time>2011-02-21T19:58:21Z</time>
      </trkpt>
      <trkpt lat="59.5184721" lon="17.8759784">
        <ele>28.4962</ele>
        <time>2011-02-21T19:58:23Z</time>
      </trkpt>
      <trkpt lat="59.5184034" lon="17.8761857">
        <ele>27.5349</ele>
        <time>2011-02-21T19:58:26Z</time>
      </trkpt>
      <trkpt lat="59.5183146" lon="17.8765941">
        <ele>27.0543</ele>
        <time>2011-02-21T19:58:32Z</time>
      </trkpt>
      <trkpt lat="59.5183568" lon="17.8767462">
        <ele>28.0155</ele>
        <time>2011-02-21T19:58:35Z</time>
      </trkpt>
      <trkpt lat="59.5185219" lon="17.8771356">
        <ele>28.9769</ele>
        <time>2011-02-21T19:58:42Z</time>
      </trkpt>
      <trkpt lat="59.5186135" lon="17.8773542">
        <ele>30.8995</ele>
        <time>2011-02-21T19:58:46Z</time>
      </trkpt>
      <trkpt lat="59.5186598" lon="17.8775709">
        <ele>30.4188</ele>
        <time>2011-02-21T19:58:50Z</time>
      </trkpt>
      <trkpt lat="59.5186783" lon="17.8777944">
        <ele>30.8995</ele>
        <time>2011-02-21T19:58:54Z</time>
      </trkpt>
      <trkpt lat="59.5187464" lon="17.8780373">
        <ele>30.4188</ele>
        <time>2011-02-21T19:58:59Z</time>
      </trkpt>
      <trkpt lat="59.5188521" lon="17.8782908">
        <ele>29.9381</ele>
        <time>2011-02-21T19:59:04Z</time>
      </trkpt>
      <trkpt lat="59.5189611" lon="17.8784985">
        <ele>28.4962</ele>
        <time>2011-02-21T19:59:08Z</time>
      </trkpt>
      <trkpt lat="59.5190863" lon="17.8787383">
        <ele>28.9769</ele>
        <time>2011-02-21T19:59:12Z</time>
      </trkpt>
      <trkpt lat="59.5192182" lon="17.87895">
        <ele>28.4962</ele>
        <time>2011-02-21T19:59:16Z</time>
      </trkpt>
      <trkpt lat="59.5193557" lon="17.8790892">
        <ele>29.4575</ele>
        <time>2011-02-21T19:59:20Z</time>
      </trkpt>
      <trkpt lat="59.5195038" lon="17.8792041">
        <ele>30.8995</ele>
        <time>2011-02-21T19:59:25Z</time>
      </trkpt>
      <trkpt lat="59.51964" lon="17.8792388">
        <ele>28.9769</ele>
        <time>2011-02-21T19:59:31Z</time>
      </trkpt>
      <trkpt lat="59.5197399" lon="17.8792878">
        <ele>28.9769</ele>
        <time>2011-02-21T19:59:35Z</time>
      </trkpt>
      <trkpt lat="59.5198278" lon="17.8793332">
        <ele>29.4575</ele>
        <time>2011-02-21T19:59:39Z</time>
      </trkpt>
      <trkpt lat="59.5199118" lon="17.8793056">
        <ele>31.3801</ele>
        <time>2011-02-21T19:59:43Z</time>
      </trkpt>
      <trkpt lat="59.5200104" lon="17.8792702">
        <ele>32.8223</ele>
        <time>2011-02-21T19:59:47Z</time>
      </trkpt>
      <trkpt lat="59.5201025" lon="17.8792248">
        <ele>32.3416</ele>
        <time>2011-02-21T19:59:51Z</time>
      </trkpt>
      <trkpt lat="59.5202543" lon="17.8790932">
        <ele>35.7061</ele>
        <time>2011-02-21T19:59:57Z</time>
      </trkpt>
      <trkpt lat="59.5203469" lon="17.8790331">
        <ele>36.1868</ele>
        <time>2011-02-21T20:00:00Z</time>
      </trkpt>
      <trkpt lat="59.5204692" lon="17.8789994">
        <ele>37.1481</ele>
        <time>2011-02-21T20:00:05Z</time>
      </trkpt>
      <trkpt lat="59.5205739" lon="17.8790588">
        <ele>37.1481</ele>
        <time>2011-02-21T20:00:10Z</time>
      </trkpt>
      <trkpt lat="59.5206792" lon="17.8791595">
        <ele>39.5513</ele>
        <time>2011-02-21T20:00:15Z</time>
      </trkpt>
      <trkpt lat="59.5207593" lon="17.8793039">
        <ele>40.9934</ele>
        <time>2011-02-21T20:00:20Z</time>
      </trkpt>
      <trkpt lat="59.5208322" lon="17.8794857">
        <ele>39.5513</ele>
        <time>2011-02-21T20:00:24Z</time>
      </trkpt>
      <trkpt lat="59.5209333" lon="17.8797889">
        <ele>38.5901</ele>
        <time>2011-02-21T20:00:28Z</time>
      </trkpt>
      <trkpt lat="59.52112" lon="17.8800321">
        <ele>38.1094</ele>
        <time>2011-02-21T20:00:33Z</time>
      </trkpt>
      <trkpt lat="59.5211597" lon="17.8800777">
        <ele>38.5901</ele>
        <time>2011-02-21T20:00:34Z</time>
      </trkpt>
      <trkpt lat="59.5212759" lon="17.880266">
        <ele>38.1094</ele>
        <time>2011-02-21T20:00:37Z</time>
      </trkpt>
      <trkpt lat="59.5213716" lon="17.8804007">
        <ele>37.6287</ele>
        <time>2011-02-21T20:00:39Z</time>
      </trkpt>
      <trkpt lat="59.5216508" lon="17.880584">
        <ele>36.1868</ele>
        <time>2011-02-21T20:00:44Z</time>
      </trkpt>
      <trkpt lat="59.5217879" lon="17.8806401">
        <ele>35.7061</ele>
        <time>2011-02-21T20:00:47Z</time>
      </trkpt>
      <trkpt lat="59.5219844" lon="17.8806943">
        <ele>35.2255</ele>
        <time>2011-02-21T20:00:52Z</time>
      </trkpt>
      <trkpt lat="59.5221145" lon="17.8807228">
        <ele>34.2642</ele>
        <time>2011-02-21T20:00:56Z</time>
      </trkpt>
      <trkpt lat="59.5221786" lon="17.8808556">
        <ele>32.3416</ele>
        <time>2011-02-21T20:00:59Z</time>
      </trkpt>
      <trkpt lat="59.5222645" lon="17.8811787">
        <ele>30.4188</ele>
        <time>2011-02-21T20:01:04Z</time>
      </trkpt>
      <trkpt lat="59.5223748" lon="17.8813704">
        <ele>29.9381</ele>
        <time>2011-02-21T20:01:08Z</time>
      </trkpt>
      <trkpt lat="59.5224496" lon="17.8814534">
        <ele>29.9381</ele>
        <time>2011-02-21T20:01:11Z</time>
      </trkpt>
    </trkseg>
  </trk>
</gpx>